Time,TemperatureF,DewpointF,PressureIn,WindDirection,WindDirectionDegrees,WindSpeedMPH,WindSpeedGustMPH,Humidity,HourlyPrecipIn,Conditions,Clouds,dailyrainin,SoftwareType,DateUTC
2013-02-12 00:00:00,50.2,49.4,29.96,SW,226,0.0,0.0,97,0.00,,,0.09,Wunderground v.1.15,2013-02-12 05:00:00,
2013-02-12 00:03:00,50.2,49.7,29.97,SW,226,0.0,0.0,98,0.00,,,0.00,Wunderground v.1.15,2013-02-12 05:03:00,
2013-02-12 00:04:00,50.2,49.7,29.97,SW,226,0.0,0.0,98,0.00,,,0.00,Wunderground v.1.15,2013-02-12 05:04:00,
2013-02-12 00:09:00,50.0,49.2,29.98,SW,226,0.0,0.0,97,0.00,,,0.00,Wunderground v.1.15,2013-02-12 05:09:00,
2013-02-12 00:12:00,50.2,49.7,29.98,SW,226,0.0,0.0,98,0.00,,,0.00,Wunderground v.1.15,2013-02-12 05:12:00,
2013-02-12 00:14:00,50.3,49.8,29.98,SW,226,0.0,0.0,98,0.00,,,0.00,Wunderground v.1.15,2013-02-12 05:14:00,
2013-02-12 00:16:00,50.3,49.8,29.98,SW,226,0.0,0.0,98,0.00,,,0.00,Wunderground v.1.15,2013-02-12 05:16:00,
2013-02-12 00:19:00,50.4,49.9,29.98,SW,226,0.0,0.0,98,0.00,,,0.00,Wunderground v.1.15,2013-02-12 05:19:00,
2013-02-12 00:23:00,50.3,49.8,29.99,SW,226,0.0,0.0,98,0.00,,,0.00,Wunderground v.1.15,2013-02-12 05:23:00,
2013-02-12 00:28:00,50.1,49.6,29.99,SW,226,0.0,0.0,98,0.00,,,0.00,Wunderground v.1.15,2013-02-12 05:28:00,
2013-02-12 00:29:00,50.1,49.6,29.99,SW,226,0.0,0.0,98,0.00,,,0.00,Wunderground v.1.15,2013-02-12 05:29:00,
2013-02-12 00:34:00,50.0,49.5,29.99,SW,226,0.0,0.0,98,0.00,,,0.00,Wunderground v.1.15,2013-02-12 05:34:00,
2013-02-12 00:35:00,49.9,49.4,29.99,SW,226,0.0,0.0,98,0.00,,,0.00,Wunderground v.1.15,2013-02-12 05:35:00,
2013-02-12 00:36:00,49.9,49.4,29.99,SW,226,0.0,0.0,98,0.00,,,0.00,Wunderground v.1.15,2013-02-12 05:36:00,
2013-02-12 00:42:00,49.6,49.1,29.99,SW,226,0.0,0.0,98,0.00,,,0.00,Wunderground v.1.15,2013-02-12 05:42:00,
2013-02-12 00:43:00,49.5,49.0,29.99,SW,226,0.0,0.0,98,0.00,,,0.00,Wunderground v.1.15,2013-02-12 05:43:00,
2013-02-12 00:44:00,49.5,49.0,30.00,SW,227,0.0,0.0,98,0.00,,,0.00,Wunderground v.1.15,2013-02-12 05:44:00,
2013-02-12 00:48:00,49.3,48.8,30.00,SW,226,0.0,0.0,98,0.00,,,0.00,Wunderground v.1.15,2013-02-12 05:48:00,
2013-02-12 00:49:00,49.4,48.9,30.00,SW,226,0.0,0.0,98,0.00,,,0.00,Wunderground v.1.15,2013-02-12 05:49:00,
2013-02-12 00:50:00,49.5,49.0,30.00,SW,226,0.0,0.0,98,0.00,,,0.00,Wunderground v.1.15,2013-02-12 05:50:00,
2013-02-12 00:53:00,49.7,49.4,29.99,SW,215,0.0,0.0,99,0.00,,,0.00,Wunderground v.1.15,2013-02-12 05:53:00,
2013-02-12 00:54:00,49.7,49.4,29.99,SW,228,1.0,1.0,99,0.00,,,0.00,Wunderground v.1.15,2013-02-12 05:54:00,
2013-02-12 00:59:00,49.8,49.5,29.99,SSW,212,0.0,1.0,99,0.00,,,0.00,Wunderground v.1.15,2013-02-12 05:59:00,
2013-02-12 01:00:00,49.7,49.4,29.99,SW,214,0.0,0.0,99,0.00,,,0.00,Wunderground v.1.15,2013-02-12 06:00:00,
2013-02-12 01:02:00,49.7,49.4,30.00,SW,214,0.0,0.0,99,0.00,,,0.00,Wunderground v.1.15,2013-02-12 06:02:00,
2013-02-12 01:04:00,49.6,49.3,29.99,SW,229,0.0,0.0,99,0.00,,,0.00,Wunderground v.1.15,2013-02-12 06:04:00,
2013-02-12 01:09:00,49.6,49.1,30.00,SSW,210,0.0,0.0,98,0.00,,,0.00,Wunderground v.1.15,2013-02-12 06:09:00,
2013-02-12 01:13:00,49.5,49.2,30.00,SW,221,1.0,2.0,99,0.00,,,0.00,Wunderground v.1.15,2013-02-12 06:13:00,
2013-02-12 01:15:00,49.5,49.0,30.00,SW,224,1.0,2.0,98,0.00,,,0.00,Wunderground v.1.15,2013-02-12 06:15:00,
2013-02-12 01:19:00,49.4,49.1,30.00,SSW,212,2.0,2.0,99,0.00,,,0.00,Wunderground v.1.15,2013-02-12 06:19:00,
2013-02-12 01:21:00,49.4,49.1,30.01,SW,221,2.0,2.0,99,0.00,,,0.00,Wunderground v.1.15,2013-02-12 06:21:00,
2013-02-12 01:23:00,49.4,49.1,30.00,SW,236,0.0,2.0,99,0.00,,,0.00,Wunderground v.1.15,2013-02-12 06:23:00,
2013-02-12 01:24:00,49.4,49.1,30.00,SW,236,0.0,2.0,99,0.00,,,0.00,Wunderground v.1.15,2013-02-12 06:24:00,
2013-02-12 01:26:00,49.3,49.0,30.00,SW,236,0.0,2.0,99,0.00,,,0.00,Wunderground v.1.15,2013-02-12 06:26:00,
2013-02-12 01:29:00,49.2,48.9,30.00,WSW,237,0.0,2.0,99,0.00,,,0.00,Wunderground v.1.15,2013-02-12 06:29:00,
2013-02-12 01:31:00,49.2,48.7,30.00,SW,236,0.0,1.0,98,0.00,,,0.00,Wunderground v.1.15,2013-02-12 06:31:00,
2013-02-12 01:34:00,49.1,48.6,30.00,SW,236,0.0,1.0,98,0.00,,,0.00,Wunderground v.1.15,2013-02-12 06:34:00,
2013-02-12 01:35:00,49.1,48.6,30.00,SW,228,0.0,1.0,98,0.00,,,0.00,Wunderground v.1.15,2013-02-12 06:35:00,
2013-02-12 01:36:00,49.1,48.6,30.00,SW,228,0.0,1.0,98,0.00,,,0.00,Wunderground v.1.15,2013-02-12 06:36:00,
2013-02-12 01:37:00,49.0,48.5,30.00,SW,228,0.0,1.0,98,0.00,,,0.00,Wunderground v.1.15,2013-02-12 06:37:00,
2013-02-12 01:39:00,48.9,48.4,30.00,SW,224,2.0,2.0,98,0.00,,,0.00,Wunderground v.1.15,2013-02-12 06:39:00,
2013-02-12 01:42:00,48.9,48.4,30.00,WSW,240,1.0,2.0,98,0.00,,,0.00,Wunderground v.1.15,2013-02-12 06:42:00,
2013-02-12 01:43:00,48.8,48.3,30.00,WSW,241,0.0,2.0,98,0.00,,,0.00,Wunderground v.1.15,2013-02-12 06:43:00,
2013-02-12 01:46:00,48.8,48.3,30.00,WSW,238,0.0,2.0,98,0.00,,,0.00,Wunderground v.1.15,2013-02-12 06:46:00,
2013-02-12 01:48:00,48.7,48.2,30.00,SW,221,0.0,2.0,98,0.00,,,0.00,Wunderground v.1.15,2013-02-12 06:48:00,
2013-02-12 01:49:00,48.7,48.2,30.00,SW,224,0.0,0.0,98,0.00,,,0.00,Wunderground v.1.15,2013-02-12 06:49:00,
2013-02-12 01:53:00,48.5,48.0,30.00,SW,228,0.0,0.0,98,0.00,,,0.00,Wunderground v.1.15,2013-02-12 06:53:00,
2013-02-12 01:56:00,48.5,48.0,30.00,SW,232,0.0,0.0,98,0.00,,,0.00,Wunderground v.1.15,2013-02-12 06:56:00,
2013-02-12 01:58:00,48.3,47.8,30.00,SW,232,0.0,0.0,98,0.00,,,0.00,Wunderground v.1.15,2013-02-12 06:58:00,
2013-02-12 01:59:00,48.4,47.9,30.00,SW,225,0.0,0.0,98,0.00,,,0.00,Wunderground v.1.15,2013-02-12 06:59:00,
2013-02-12 02:01:00,48.4,47.9,30.00,SW,232,0.0,0.0,98,0.00,,,0.00,Wunderground v.1.15,2013-02-12 07:01:00,
2013-02-12 02:03:00,48.3,47.8,30.00,SW,232,1.0,2.0,98,0.00,,,0.00,Wunderground v.1.15,2013-02-12 07:03:00,
2013-02-12 02:04:00,48.4,47.9,30.00,SW,226,1.0,2.0,98,0.00,,,0.00,Wunderground v.1.15,2013-02-12 07:04:00,
2013-02-12 02:06:00,48.4,47.9,30.00,WSW,238,1.0,2.0,98,0.00,,,0.00,Wunderground v.1.15,2013-02-12 07:06:00,
2013-02-12 02:08:00,48.4,48.1,30.00,SW,218,2.0,3.0,99,0.00,,,0.00,Wunderground v.1.15,2013-02-12 07:08:00,
2013-02-12 02:09:00,48.4,48.1,30.00,SW,232,2.0,3.0,99,0.00,,,0.00,Wunderground v.1.15,2013-02-12 07:09:00,
2013-02-12 02:11:00,48.3,47.8,30.00,WSW,246,1.0,1.0,98,0.00,,,0.00,Wunderground v.1.15,2013-02-12 07:11:00,
2013-02-12 02:12:00,48.3,47.8,30.00,WSW,246,1.0,1.0,98,0.00,,,0.00,Wunderground v.1.15,2013-02-12 07:12:00,
2013-02-12 02:13:00,48.3,47.8,30.00,SW,229,2.0,2.0,98,0.00,,,0.00,Wunderground v.1.15,2013-02-12 07:13:00,
2013-02-12 02:14:00,48.3,47.8,30.00,SW,229,0.0,2.0,98,0.00,,,0.00,Wunderground v.1.15,2013-02-12 07:14:00,
2013-02-12 02:16:00,48.3,47.8,30.00,SW,229,1.0,2.0,98,0.00,,,0.00,Wunderground v.1.15,2013-02-12 07:16:00,
2013-02-12 02:17:00,48.2,47.7,30.00,SW,229,1.0,2.0,98,0.00,,,0.00,Wunderground v.1.15,2013-02-12 07:17:00,
2013-02-12 02:19:00,48.2,47.7,30.00,SW,235,1.0,2.0,98,0.00,,,0.00,Wunderground v.1.15,2013-02-12 07:19:00,
2013-02-12 02:21:00,48.1,47.6,30.00,WSW,245,1.0,1.0,98,0.00,,,0.00,Wunderground v.1.15,2013-02-12 07:21:00,
2013-02-12 02:22:00,48.1,47.6,30.00,WSW,245,0.0,1.0,98,0.00,,,0.00,Wunderground v.1.15,2013-02-12 07:22:00,
2013-02-12 02:24:00,48.0,47.5,30.00,WSW,244,0.0,1.0,98,0.00,,,0.00,Wunderground v.1.15,2013-02-12 07:24:00,
2013-02-12 02:26:00,47.9,47.4,30.00,WSW,245,0.0,1.0,98,0.00,,,0.00,Wunderground v.1.15,2013-02-12 07:26:00,
2013-02-12 02:27:00,47.7,47.2,30.00,WSW,245,0.0,1.0,98,0.00,,,0.00,Wunderground v.1.15,2013-02-12 07:27:00,
2013-02-12 02:29:00,47.7,47.2,30.01,WSW,245,0.0,1.0,98,0.00,,,0.00,Wunderground v.1.15,2013-02-12 07:29:00,
2013-02-12 02:31:00,47.3,46.5,30.00,WSW,245,0.0,0.0,97,0.00,,,0.00,Wunderground v.1.15,2013-02-12 07:31:00,
2013-02-12 02:32:00,47.1,46.3,30.00,WSW,245,0.0,0.0,97,0.00,,,0.00,Wunderground v.1.15,2013-02-12 07:32:00,
2013-02-12 02:34:00,47.0,46.2,30.00,WSW,244,0.0,0.0,97,0.00,,,0.00,Wunderground v.1.15,2013-02-12 07:34:00,
2013-02-12 02:36:00,46.9,46.4,30.01,WSW,244,0.0,0.0,98,0.00,,,0.00,Wunderground v.1.15,2013-02-12 07:36:00,
2013-02-12 02:38:00,47.0,46.5,30.01,WSW,245,0.0,0.0,98,0.00,,,0.00,Wunderground v.1.15,2013-02-12 07:38:00,
2013-02-12 02:39:00,47.1,46.6,30.01,WSW,245,0.0,0.0,98,0.00,,,0.00,Wunderground v.1.15,2013-02-12 07:39:00,
2013-02-12 02:40:00,47.0,46.5,30.01,WSW,244,0.0,0.0,98,0.00,,,0.00,Wunderground v.1.15,2013-02-12 07:40:00,
2013-02-12 02:41:00,46.9,46.4,30.01,WSW,245,0.0,0.0,98,0.00,,,0.00,Wunderground v.1.15,2013-02-12 07:41:00,
2013-02-12 02:43:00,46.8,46.3,30.01,WSW,244,0.0,0.0,98,0.00,,,0.00,Wunderground v.1.15,2013-02-12 07:43:00,
2013-02-12 02:45:00,46.7,46.2,30.01,WSW,245,0.0,0.0,98,0.00,,,0.00,Wunderground v.1.15,2013-02-12 07:45:00,
2013-02-12 02:47:00,46.6,46.1,30.02,WSW,245,0.0,0.0,98,0.00,,,0.00,Wunderground v.1.15,2013-02-12 07:47:00,
2013-02-12 02:48:00,46.5,46.0,30.02,WSW,244,0.0,0.0,98,0.00,,,0.00,Wunderground v.1.15,2013-02-12 07:48:00,
2013-02-12 02:50:00,46.5,46.0,30.02,WSW,245,0.0,0.0,98,0.00,,,0.00,Wunderground v.1.15,2013-02-12 07:50:00,
2013-02-12 02:52:00,46.4,45.9,30.02,WSW,245,0.0,0.0,98,0.00,,,0.00,Wunderground v.1.15,2013-02-12 07:52:00,
2013-02-12 02:53:00,46.4,45.9,30.02,WSW,245,0.0,0.0,98,0.00,,,0.00,Wunderground v.1.15,2013-02-12 07:53:00,
2013-02-12 02:55:00,46.3,45.8,30.02,WSW,245,0.0,0.0,98,0.00,,,0.00,Wunderground v.1.15,2013-02-12 07:55:00,
2013-02-12 02:58:00,46.1,45.6,30.01,WSW,245,0.0,0.0,98,0.00,,,0.00,Wunderground v.1.15,2013-02-12 07:58:00,
2013-02-12 03:00:00,46.0,45.5,30.01,WSW,245,0.0,0.0,98,0.00,,,0.00,Wunderground v.1.15,2013-02-12 08:00:00,
2013-02-12 03:01:00,46.0,45.5,30.01,WSW,245,0.0,0.0,98,0.00,,,0.00,Wunderground v.1.15,2013-02-12 08:01:00,
2013-02-12 03:03:00,45.8,45.3,30.01,WSW,244,0.0,0.0,98,0.00,,,0.00,Wunderground v.1.15,2013-02-12 08:03:00,
2013-02-12 03:05:00,45.7,45.2,30.02,WSW,244,0.0,0.0,98,0.00,,,0.00,Wunderground v.1.15,2013-02-12 08:05:00,
2013-02-12 03:06:00,45.7,45.2,30.02,WSW,245,0.0,0.0,98,0.00,,,0.00,Wunderground v.1.15,2013-02-12 08:06:00,
2013-02-12 03:08:00,45.6,45.1,30.01,WSW,244,0.0,0.0,98,0.00,,,0.00,Wunderground v.1.15,2013-02-12 08:08:00,
2013-02-12 03:10:00,45.5,45.0,30.01,WSW,245,0.0,0.0,98,0.00,,,0.00,Wunderground v.1.15,2013-02-12 08:10:00,
2013-02-12 03:11:00,45.5,45.0,30.01,WSW,244,0.0,0.0,98,0.00,,,0.00,Wunderground v.1.15,2013-02-12 08:11:00,
2013-02-12 03:13:00,45.4,44.9,30.01,WSW,245,0.0,0.0,98,0.00,,,0.00,Wunderground v.1.15,2013-02-12 08:13:00,
2013-02-12 03:14:00,45.4,44.9,30.01,WSW,245,0.0,0.0,98,0.00,,,0.00,Wunderground v.1.15,2013-02-12 08:14:00,
2013-02-12 03:16:00,45.3,44.8,30.01,WSW,245,0.0,0.0,98,0.00,,,0.00,Wunderground v.1.15,2013-02-12 08:16:00,
2013-02-12 03:18:00,45.4,44.9,30.01,WSW,244,0.0,0.0,98,0.00,,,0.00,Wunderground v.1.15,2013-02-12 08:18:00,
2013-02-12 03:19:00,45.4,44.9,30.01,WSW,245,0.0,0.0,98,0.00,,,0.00,Wunderground v.1.15,2013-02-12 08:19:00,
2013-02-12 03:21:00,45.3,44.8,30.01,WSW,245,0.0,0.0,98,0.00,,,0.00,Wunderground v.1.15,2013-02-12 08:21:00,
2013-02-12 03:23:00,45.3,44.8,30.01,WSW,245,0.0,0.0,98,0.00,,,0.00,Wunderground v.1.15,2013-02-12 08:23:00,
2013-02-12 03:24:00,45.3,44.8,30.01,WSW,245,0.0,0.0,98,0.00,,,0.00,Wunderground v.1.15,2013-02-12 08:24:00,
2013-02-12 03:26:00,45.4,44.9,30.01,WSW,245,0.0,0.0,98,0.00,,,0.00,Wunderground v.1.15,2013-02-12 08:26:00,
2013-02-12 03:28:00,45.5,45.2,30.01,WSW,244,0.0,0.0,99,0.00,,,0.00,Wunderground v.1.15,2013-02-12 08:28:00,
2013-02-12 03:29:00,45.5,45.2,30.01,WSW,245,0.0,0.0,99,0.00,,,0.00,Wunderground v.1.15,2013-02-12 08:29:00,
2013-02-12 03:31:00,45.5,45.2,30.01,WSW,245,0.0,0.0,99,0.00,,,0.00,Wunderground v.1.15,2013-02-12 08:31:00,
2013-02-12 03:32:00,45.5,45.2,30.01,WSW,245,0.0,0.0,99,0.00,,,0.00,Wunderground v.1.15,2013-02-12 08:32:00,
2013-02-12 03:33:00,45.4,45.1,30.01,WSW,245,0.0,0.0,99,0.00,,,0.00,Wunderground v.1.15,2013-02-12 08:33:00,
2013-02-12 03:34:00,45.4,45.1,30.01,WSW,245,0.0,0.0,99,0.00,,,0.00,Wunderground v.1.15,2013-02-12 08:34:00,
2013-02-12 03:36:00,45.3,45.0,30.01,WSW,245,0.0,0.0,99,0.00,,,0.00,Wunderground v.1.15,2013-02-12 08:36:00,
2013-02-12 03:37:00,45.3,45.0,30.01,WSW,245,0.0,0.0,99,0.00,,,0.00,Wunderground v.1.15,2013-02-12 08:37:00,
2013-02-12 03:38:00,45.3,45.0,30.00,WSW,245,0.0,0.0,99,0.00,,,0.00,Wunderground v.1.15,2013-02-12 08:38:00,
2013-02-12 03:39:00,45.3,45.0,30.00,WSW,245,0.0,0.0,99,0.00,,,0.00,Wunderground v.1.15,2013-02-12 08:39:00,
2013-02-12 03:41:00,45.1,44.6,30.01,WSW,245,0.0,0.0,98,0.00,,,0.00,Wunderground v.1.15,2013-02-12 08:41:00,
2013-02-12 03:42:00,45.1,44.6,30.01,WSW,244,0.0,0.0,98,0.00,,,0.00,Wunderground v.1.15,2013-02-12 08:42:00,
2013-02-12 03:43:00,45.1,44.6,30.01,WSW,244,0.0,0.0,98,0.00,,,0.00,Wunderground v.1.15,2013-02-12 08:43:00,
2013-02-12 03:44:00,45.1,44.6,30.01,WSW,245,0.0,0.0,98,0.00,,,0.00,Wunderground v.1.15,2013-02-12 08:44:00,
2013-02-12 03:46:00,45.1,44.6,30.02,WSW,245,0.0,0.0,98,0.00,,,0.00,Wunderground v.1.15,2013-02-12 08:46:00,
2013-02-12 03:47:00,45.1,44.6,30.01,WSW,244,0.0,0.0,98,0.00,,,0.00,Wunderground v.1.15,2013-02-12 08:47:00,
2013-02-12 03:48:00,45.1,44.8,30.01,WSW,245,0.0,0.0,99,0.00,,,0.00,Wunderground v.1.15,2013-02-12 08:48:00,
2013-02-12 03:49:00,45.1,44.8,30.01,WSW,245,0.0,0.0,99,0.00,,,0.00,Wunderground v.1.15,2013-02-12 08:49:00,
2013-02-12 03:51:00,45.1,44.8,30.01,WSW,244,0.0,0.0,99,0.00,,,0.00,Wunderground v.1.15,2013-02-12 08:51:00,
2013-02-12 03:52:00,45.1,44.8,30.01,WSW,245,0.0,0.0,99,0.00,,,0.00,Wunderground v.1.15,2013-02-12 08:52:00,
2013-02-12 03:54:00,45.1,44.8,30.01,WSW,245,0.0,0.0,99,0.00,,,0.00,Wunderground v.1.15,2013-02-12 08:54:00,
2013-02-12 03:56:00,45.1,44.8,30.00,SW,232,0.0,0.0,99,0.00,,,0.00,Wunderground v.1.15,2013-02-12 08:56:00,
2013-02-12 03:57:00,45.1,44.8,30.00,SW,232,0.0,0.0,99,0.00,,,0.00,Wunderground v.1.15,2013-02-12 08:57:00,
2013-02-12 03:59:00,45.1,44.8,30.00,SW,232,0.0,0.0,99,0.00,,,0.00,Wunderground v.1.15,2013-02-12 08:59:00,
2013-02-12 04:00:00,45.0,44.7,30.00,SW,232,0.0,0.0,99,0.00,,,0.00,Wunderground v.1.15,2013-02-12 09:00:00,
2013-02-12 04:01:00,45.0,44.7,30.00,SW,232,0.0,0.0,99,0.00,,,0.00,Wunderground v.1.15,2013-02-12 09:01:00,
2013-02-12 04:03:00,44.9,44.4,30.00,WSW,242,0.0,0.0,98,0.00,,,0.00,Wunderground v.1.15,2013-02-12 09:03:00,
2013-02-12 04:05:00,44.9,44.4,30.00,SW,231,0.0,0.0,98,0.00,,,0.00,Wunderground v.1.15,2013-02-12 09:05:00,
2013-02-12 04:06:00,44.9,44.4,30.00,SW,230,0.0,0.0,98,0.00,,,0.00,Wunderground v.1.15,2013-02-12 09:06:00,
2013-02-12 04:08:00,44.9,44.4,30.00,SW,231,0.0,0.0,98,0.00,,,0.00,Wunderground v.1.15,2013-02-12 09:08:00,
2013-02-12 04:10:00,44.9,44.4,30.00,SW,231,0.0,0.0,98,0.00,,,0.00,Wunderground v.1.15,2013-02-12 09:10:00,
2013-02-12 04:11:00,44.8,44.3,30.00,SW,230,0.0,0.0,98,0.00,,,0.00,Wunderground v.1.15,2013-02-12 09:11:00,
2013-02-12 04:13:00,44.7,44.2,30.00,SW,236,0.0,0.0,98,0.00,,,0.00,Wunderground v.1.15,2013-02-12 09:13:00,
2013-02-12 04:15:00,44.7,44.2,30.01,SW,236,0.0,0.0,98,0.00,,,0.00,Wunderground v.1.15,2013-02-12 09:15:00,
2013-02-12 04:16:00,44.6,44.1,30.01,SW,229,0.0,0.0,98,0.00,,,0.00,Wunderground v.1.15,2013-02-12 09:16:00,
2013-02-12 04:18:00,44.6,43.8,30.01,SW,229,0.0,0.0,97,0.00,,,0.00,Wunderground v.1.15,2013-02-12 09:18:00,
2013-02-12 04:20:00,44.5,43.7,30.01,SW,236,0.0,0.0,97,0.00,,,0.00,Wunderground v.1.15,2013-02-12 09:20:00,
2013-02-12 04:21:00,44.6,43.8,30.01,WSW,238,0.0,0.0,97,0.00,,,0.00,Wunderground v.1.15,2013-02-12 09:21:00,
2013-02-12 04:24:00,44.5,43.7,30.02,WSW,240,0.0,0.0,97,0.00,,,0.00,Wunderground v.1.15,2013-02-12 09:24:00,
2013-02-12 04:25:00,44.5,43.4,30.02,WSW,250,0.0,0.0,96,0.00,,,0.00,Wunderground v.1.15,2013-02-12 09:25:00,
2013-02-12 04:26:00,44.5,43.4,30.01,WSW,250,0.0,0.0,96,0.00,,,0.00,Wunderground v.1.15,2013-02-12 09:26:00,
2013-02-12 04:29:00,44.4,43.1,30.01,SW,225,0.0,0.0,95,0.00,,,0.00,Wunderground v.1.15,2013-02-12 09:29:00,
2013-02-12 04:30:00,44.4,43.1,30.01,SW,225,0.0,0.0,95,0.00,,,0.00,Wunderground v.1.15,2013-02-12 09:30:00,
2013-02-12 04:31:00,44.4,43.1,30.01,SW,225,0.0,0.0,95,0.00,,,0.00,Wunderground v.1.15,2013-02-12 09:31:00,
2013-02-12 04:34:00,44.3,43.0,30.01,SW,225,0.0,0.0,95,0.00,,,0.00,Wunderground v.1.15,2013-02-12 09:34:00,
2013-02-12 04:35:00,44.2,42.9,30.01,SW,224,0.0,0.0,95,0.00,,,0.00,Wunderground v.1.15,2013-02-12 09:35:00,
2013-02-12 04:36:00,44.0,42.7,30.01,SW,225,0.0,0.0,95,0.00,,,0.00,Wunderground v.1.15,2013-02-12 09:36:00,
2013-02-12 04:37:00,44.0,42.7,30.01,SW,225,0.0,0.0,95,0.00,,,0.00,Wunderground v.1.15,2013-02-12 09:37:00,
2013-02-12 04:39:00,43.9,42.6,30.01,SW,225,0.0,0.0,95,0.00,,,0.00,Wunderground v.1.15,2013-02-12 09:39:00,
2013-02-12 04:40:00,43.9,42.6,30.01,SW,225,0.0,0.0,95,0.00,,,0.00,Wunderground v.1.15,2013-02-12 09:40:00,
2013-02-12 04:42:00,43.9,42.6,30.01,WSW,240,0.0,0.0,95,0.00,,,0.00,Wunderground v.1.15,2013-02-12 09:42:00,
2013-02-12 04:44:00,44.0,42.7,30.02,WSW,253,0.0,0.0,95,0.00,,,0.00,Wunderground v.1.15,2013-02-12 09:44:00,
2013-02-12 04:45:00,44.0,42.7,30.02,WSW,253,0.0,0.0,95,0.00,,,0.00,Wunderground v.1.15,2013-02-12 09:45:00,
2013-02-12 04:47:00,44.0,42.4,30.01,WSW,253,0.0,0.0,94,0.00,,,0.00,Wunderground v.1.15,2013-02-12 09:47:00,
2013-02-12 04:50:00,43.9,42.6,30.01,WSW,253,0.0,0.0,95,0.00,,,0.00,Wunderground v.1.15,2013-02-12 09:50:00,
2013-02-12 04:52:00,43.8,42.5,30.02,WSW,253,0.0,0.0,95,0.00,,,0.00,Wunderground v.1.15,2013-02-12 09:52:00,
2013-02-12 04:55:00,43.5,42.2,30.02,WSW,253,0.0,0.0,95,0.00,,,0.00,Wunderground v.1.15,2013-02-12 09:55:00,
2013-02-12 04:56:00,43.5,42.2,30.01,WSW,253,0.0,0.0,95,0.00,,,0.00,Wunderground v.1.15,2013-02-12 09:56:00,
2013-02-12 04:57:00,43.4,42.1,30.01,WSW,253,0.0,0.0,95,0.00,,,0.00,Wunderground v.1.15,2013-02-12 09:57:00,
2013-02-12 04:58:00,43.3,42.0,30.01,WSW,256,0.0,0.0,95,0.00,,,0.00,Wunderground v.1.15,2013-02-12 09:58:00,
2013-02-12 05:00:00,43.1,41.8,30.01,WNW,287,0.0,0.0,95,0.00,,,0.00,Wunderground v.1.15,2013-02-12 10:00:00,
2013-02-12 05:01:00,43.0,41.7,30.01,WNW,287,0.0,0.0,95,0.00,,,0.00,Wunderground v.1.15,2013-02-12 10:01:00,
2013-02-12 05:03:00,42.9,41.6,30.01,WNW,286,0.0,0.0,95,0.00,,,0.00,Wunderground v.1.15,2013-02-12 10:03:00,
2013-02-12 05:05:00,42.7,41.6,30.02,WNW,287,0.0,0.0,96,0.00,,,0.00,Wunderground v.1.15,2013-02-12 10:05:00,
2013-02-12 05:06:00,42.6,41.5,30.02,WNW,287,0.0,0.0,96,0.00,,,0.00,Wunderground v.1.15,2013-02-12 10:06:00,
2013-02-12 05:08:00,42.5,41.4,30.02,WNW,287,0.0,0.0,96,0.00,,,0.00,Wunderground v.1.15,2013-02-12 10:08:00,
2013-02-12 05:11:00,42.3,41.2,30.02,WNW,287,0.0,0.0,96,0.00,,,0.00,Wunderground v.1.15,2013-02-12 10:11:00,
2013-02-12 05:13:00,42.1,41.0,30.03,SW,232,0.0,0.0,96,0.00,,,0.00,Wunderground v.1.15,2013-02-12 10:13:00,
2013-02-12 05:16:00,41.8,40.7,30.03,SW,232,0.0,0.0,96,0.00,,,0.00,Wunderground v.1.15,2013-02-12 10:16:00,
2013-02-12 05:18:00,41.7,40.1,30.03,SW,232,0.0,0.0,94,0.00,,,0.00,Wunderground v.1.15,2013-02-12 10:18:00,
2013-02-12 05:21:00,41.8,39.4,30.03,SW,232,0.0,0.0,91,0.00,,,0.00,Wunderground v.1.15,2013-02-12 10:21:00,
2013-02-12 05:23:00,41.9,39.7,30.03,SW,232,0.0,0.0,92,0.00,,,0.00,Wunderground v.1.15,2013-02-12 10:23:00,
2013-02-12 05:26:00,41.8,39.1,30.03,SW,232,0.0,0.0,90,0.00,,,0.00,Wunderground v.1.15,2013-02-12 10:26:00,
2013-02-12 05:27:00,41.8,39.1,30.03,SW,232,0.0,0.0,90,0.00,,,0.00,Wunderground v.1.15,2013-02-12 10:27:00,
2013-02-12 05:28:00,41.8,39.1,30.03,SW,232,0.0,0.0,90,0.00,,,0.00,Wunderground v.1.15,2013-02-12 10:28:00,
2013-02-12 05:32:00,41.7,38.7,30.02,SW,232,0.0,0.0,89,0.00,,,0.00,Wunderground v.1.15,2013-02-12 10:32:00,
2013-02-12 05:33:00,41.7,38.4,30.03,SW,232,0.0,0.0,88,0.00,,,0.00,Wunderground v.1.15,2013-02-12 10:33:00,
2013-02-12 05:37:00,41.7,38.4,30.03,SW,232,0.0,0.0,88,0.00,,,0.00,Wunderground v.1.15,2013-02-12 10:37:00,
2013-02-12 05:38:00,41.6,38.6,30.03,SW,233,0.0,0.0,89,0.00,,,0.00,Wunderground v.1.15,2013-02-12 10:38:00,
2013-02-12 05:42:00,41.5,38.2,30.03,SW,232,0.0,0.0,88,0.00,,,0.00,Wunderground v.1.15,2013-02-12 10:42:00,
2013-02-12 05:44:00,41.4,38.7,30.03,SW,232,0.0,0.0,90,0.00,,,0.00,Wunderground v.1.15,2013-02-12 10:44:00,
2013-02-12 05:47:00,41.3,38.0,30.03,SW,232,0.0,0.0,88,0.00,,,0.00,Wunderground v.1.15,2013-02-12 10:47:00,
2013-02-12 05:49:00,41.3,37.4,30.03,SW,232,0.0,0.0,86,0.00,,,0.00,Wunderground v.1.15,2013-02-12 10:49:00,
2013-02-12 05:52:00,41.4,36.6,30.03,SW,232,0.0,0.0,83,0.00,,,0.00,Wunderground v.1.15,2013-02-12 10:52:00,
2013-02-12 05:54:00,41.6,37.4,30.03,WSW,249,0.0,0.0,85,0.00,,,0.00,Wunderground v.1.15,2013-02-12 10:54:00,
2013-02-12 05:57:00,41.7,37.2,30.03,NW,305,0.0,1.0,84,0.00,,,0.00,Wunderground v.1.15,2013-02-12 10:57:00,
2013-02-12 05:59:00,41.7,37.2,30.03,NW,305,0.0,1.0,84,0.00,,,0.00,Wunderground v.1.15,2013-02-12 10:59:00,
2013-02-12 06:02:00,41.5,36.4,30.03,NNE,13,1.0,1.0,82,0.00,,,0.00,Wunderground v.1.15,2013-02-12 11:02:00,
2013-02-12 06:04:00,41.5,35.2,30.03,WNW,294,0.0,1.0,78,0.00,,,0.00,Wunderground v.1.15,2013-02-12 11:04:00,
2013-02-12 06:07:00,41.6,34.6,30.03,NNW,337,2.0,4.0,76,0.00,,,0.00,Wunderground v.1.15,2013-02-12 11:07:00,
2013-02-12 06:08:00,41.6,34.6,30.03,NNW,342,1.0,4.0,76,0.00,,,0.00,Wunderground v.1.15,2013-02-12 11:08:00,
2013-02-12 06:09:00,41.7,34.0,30.02,NNW,343,0.0,4.0,74,0.00,,,0.00,Wunderground v.1.15,2013-02-12 11:09:00,
2013-02-12 06:10:00,41.7,34.0,30.02,NNW,342,0.0,0.0,74,0.00,,,0.00,Wunderground v.1.15,2013-02-12 11:10:00,
2013-02-12 06:12:00,41.9,34.6,30.03,NNW,342,0.0,1.0,75,0.00,,,0.00,Wunderground v.1.15,2013-02-12 11:12:00,
2013-02-12 06:13:00,41.9,34.6,30.03,NNW,342,0.0,1.0,75,0.00,,,0.00,Wunderground v.1.15,2013-02-12 11:13:00,
2013-02-12 06:14:00,41.9,34.2,30.03,NW,311,0.0,1.0,74,0.00,,,0.00,Wunderground v.1.15,2013-02-12 11:14:00,
2013-02-12 06:15:00,41.9,33.9,30.03,NW,310,0.0,1.0,73,0.00,,,0.00,Wunderground v.1.15,2013-02-12 11:15:00,
2013-02-12 06:18:00,42.0,34.6,30.03,SW,235,1.0,1.0,75,0.00,,,0.00,Wunderground v.1.15,2013-02-12 11:18:00,
2013-02-12 06:19:00,42.0,34.0,30.03,SW,225,1.0,1.0,73,0.00,,,0.00,Wunderground v.1.15,2013-02-12 11:19:00,
2013-02-12 06:20:00,42.0,34.0,30.03,SW,225,1.0,1.0,73,0.00,,,0.00,Wunderground v.1.15,2013-02-12 11:20:00,
2013-02-12 06:23:00,41.9,35.2,30.03,SW,229,0.0,1.0,77,0.00,,,0.00,Wunderground v.1.15,2013-02-12 11:23:00,
2013-02-12 06:24:00,41.7,35.0,30.03,SW,229,0.0,1.0,77,0.00,,,0.00,Wunderground v.1.15,2013-02-12 11:24:00,
2013-02-12 06:25:00,41.6,35.6,30.03,SW,229,0.0,1.0,79,0.00,,,0.00,Wunderground v.1.15,2013-02-12 11:25:00,
2013-02-12 06:28:00,41.5,35.2,30.04,SW,229,0.0,1.0,78,0.00,,,0.00,Wunderground v.1.15,2013-02-12 11:28:00,
2013-02-12 06:30:00,41.4,34.7,30.04,SW,228,0.0,0.0,77,0.00,,,0.00,Wunderground v.1.15,2013-02-12 11:30:00,
2013-02-12 06:33:00,41.0,34.3,30.05,SW,229,0.0,0.0,77,0.00,,,0.00,Wunderground v.1.15,2013-02-12 11:33:00,
2013-02-12 06:35:00,40.9,34.2,30.05,SW,228,0.0,0.0,77,0.00,,,0.00,Wunderground v.1.15,2013-02-12 11:35:00,
2013-02-12 06:38:00,40.9,34.2,30.05,SW,229,0.0,0.0,77,0.00,,,0.00,Wunderground v.1.15,2013-02-12 11:38:00,
2013-02-12 06:39:00,40.9,35.2,30.05,SW,229,0.0,0.0,80,0.00,,,0.00,Wunderground v.1.15,2013-02-12 11:39:00,
2013-02-12 06:40:00,40.8,35.4,30.05,SW,229,0.0,0.0,81,0.00,,,0.00,Wunderground v.1.15,2013-02-12 11:40:00,
2013-02-12 06:41:00,40.8,35.4,30.05,SW,229,0.0,0.0,81,0.00,,,0.00,Wunderground v.1.15,2013-02-12 11:41:00,
2013-02-12 06:43:00,40.5,34.8,30.05,SW,229,0.0,0.0,80,0.00,,,0.00,Wunderground v.1.15,2013-02-12 11:43:00,
2013-02-12 06:44:00,40.5,34.8,30.05,SW,229,0.0,0.0,80,0.00,,,0.00,Wunderground v.1.15,2013-02-12 11:44:00,
2013-02-12 06:45:00,40.4,35.0,30.04,SW,229,0.0,0.0,81,0.00,,,0.00,Wunderground v.1.15,2013-02-12 11:45:00,
2013-02-12 06:46:00,40.4,35.0,30.04,SW,229,0.0,0.0,81,0.00,,,0.00,Wunderground v.1.15,2013-02-12 11:46:00,
2013-02-12 06:48:00,40.3,35.2,30.04,SW,229,0.0,0.0,82,0.00,,,0.00,Wunderground v.1.15,2013-02-12 11:48:00,
2013-02-12 06:49:00,40.3,35.5,30.04,SW,229,0.0,0.0,83,0.00,,,0.00,Wunderground v.1.15,2013-02-12 11:49:00,
2013-02-12 06:50:00,40.2,35.4,30.04,SW,229,0.0,0.0,83,0.00,,,0.00,Wunderground v.1.15,2013-02-12 11:50:00,
2013-02-12 06:51:00,40.2,35.4,30.04,SW,229,0.0,0.0,83,0.00,,,0.00,Wunderground v.1.15,2013-02-12 11:51:00,
2013-02-12 06:53:00,40.0,34.6,30.05,SW,229,0.0,0.0,81,0.00,,,0.00,Wunderground v.1.15,2013-02-12 11:53:00,
2013-02-12 06:54:00,39.9,34.9,30.05,SW,229,0.0,0.0,82,0.00,,,0.00,Wunderground v.1.15,2013-02-12 11:54:00,
2013-02-12 06:55:00,39.9,35.2,30.05,SW,229,0.0,0.0,83,0.00,,,0.00,Wunderground v.1.15,2013-02-12 11:55:00,
2013-02-12 06:56:00,39.9,35.2,30.05,SW,229,0.0,0.0,83,0.00,,,0.00,Wunderground v.1.15,2013-02-12 11:56:00,
2013-02-12 06:58:00,39.7,34.3,30.05,SW,229,0.0,0.0,81,0.00,,,0.00,Wunderground v.1.15,2013-02-12 11:58:00,
2013-02-12 06:59:00,39.7,34.7,30.05,SW,229,0.0,0.0,82,0.00,,,0.00,Wunderground v.1.15,2013-02-12 11:59:00,
2013-02-12 07:00:00,39.8,34.8,30.05,SW,229,0.0,0.0,82,0.00,,,0.00,Wunderground v.1.15,2013-02-12 12:00:00,
2013-02-12 07:01:00,39.8,34.4,30.05,SW,229,0.0,0.0,81,0.00,,,0.00,Wunderground v.1.15,2013-02-12 12:01:00,
2013-02-12 07:03:00,39.7,35.0,30.05,SW,229,0.0,0.0,83,0.00,,,0.00,Wunderground v.1.15,2013-02-12 12:03:00,
2013-02-12 07:04:00,39.7,35.0,30.05,SW,229,0.0,0.0,83,0.00,,,0.00,Wunderground v.1.15,2013-02-12 12:04:00,
2013-02-12 07:05:00,39.7,35.3,30.05,SW,229,0.0,0.0,84,0.00,,,0.00,Wunderground v.1.15,2013-02-12 12:05:00,
2013-02-12 07:06:00,39.6,34.9,30.05,SW,229,0.0,0.0,83,0.00,,,0.00,Wunderground v.1.15,2013-02-12 12:06:00,
2013-02-12 07:09:00,39.4,34.1,30.04,SW,229,0.0,0.0,81,0.00,,,0.00,Wunderground v.1.15,2013-02-12 12:09:00,
2013-02-12 07:10:00,39.3,33.6,30.04,SW,229,0.0,0.0,80,0.00,,,0.00,Wunderground v.1.15,2013-02-12 12:10:00,
2013-02-12 07:11:00,39.3,33.3,30.04,SW,229,0.0,0.0,79,0.00,,,0.00,Wunderground v.1.15,2013-02-12 12:11:00,
2013-02-12 07:14:00,39.3,33.3,30.05,SW,229,0.0,0.0,79,0.00,,,0.00,Wunderground v.1.15,2013-02-12 12:14:00,
2013-02-12 07:15:00,39.3,33.3,30.05,SW,229,0.0,0.0,79,0.00,,,0.00,Wunderground v.1.15,2013-02-12 12:15:00,
2013-02-12 07:16:00,39.3,33.6,30.05,SW,229,0.0,0.0,80,0.00,,,0.00,Wunderground v.1.15,2013-02-12 12:16:00,
2013-02-12 07:19:00,39.3,33.3,30.05,SW,229,0.0,0.0,79,0.00,,,0.00,Wunderground v.1.15,2013-02-12 12:19:00,
2013-02-12 07:20:00,39.3,33.3,30.05,SW,229,0.0,0.0,79,0.00,,,0.00,Wunderground v.1.15,2013-02-12 12:20:00,
2013-02-12 07:21:00,39.3,33.6,30.05,SW,229,0.0,0.0,80,0.00,,,0.00,Wunderground v.1.15,2013-02-12 12:21:00,
2013-02-12 07:24:00,39.3,33.6,30.05,SW,229,0.0,0.0,80,0.00,,,0.00,Wunderground v.1.15,2013-02-12 12:24:00,
2013-02-12 07:25:00,39.3,33.6,30.05,SW,229,0.0,0.0,80,0.00,,,0.00,Wunderground v.1.15,2013-02-12 12:25:00,
2013-02-12 07:26:00,39.3,33.3,30.05,SW,229,0.0,0.0,79,0.00,,,0.00,Wunderground v.1.15,2013-02-12 12:26:00,
2013-02-12 07:29:00,39.3,32.7,30.05,SW,229,0.0,0.0,77,0.00,,,0.00,Wunderground v.1.15,2013-02-12 12:29:00,
2013-02-12 07:30:00,39.4,32.8,30.05,SW,229,0.0,0.0,77,0.00,,,0.00,Wunderground v.1.15,2013-02-12 12:30:00,
2013-02-12 07:31:00,39.4,33.1,30.05,SW,229,0.0,0.0,78,0.00,,,0.00,Wunderground v.1.15,2013-02-12 12:31:00,
2013-02-12 07:35:00,39.4,33.4,30.05,SW,229,0.0,0.0,79,0.00,,,0.00,Wunderground v.1.15,2013-02-12 12:35:00,
2013-02-12 07:36:00,39.3,33.3,30.05,SW,229,0.0,0.0,79,0.00,,,0.00,Wunderground v.1.15,2013-02-12 12:36:00,
2013-02-12 07:40:00,39.0,33.0,30.05,SW,229,0.0,0.0,79,0.00,,,0.00,Wunderground v.1.15,2013-02-12 12:40:00,
2013-02-12 07:41:00,39.0,32.7,30.06,SW,229,0.0,0.0,78,0.00,,,0.00,Wunderground v.1.15,2013-02-12 12:41:00,
2013-02-12 07:42:00,38.9,32.3,30.06,SW,229,0.0,0.0,77,0.00,,,0.00,Wunderground v.1.15,2013-02-12 12:42:00,
2013-02-12 07:45:00,38.7,31.5,30.06,SW,229,0.0,0.0,75,0.00,,,0.00,Wunderground v.1.15,2013-02-12 12:45:00,
2013-02-12 07:46:00,38.7,31.5,30.06,SW,229,0.0,0.0,75,0.00,,,0.00,Wunderground v.1.15,2013-02-12 12:46:00,
2013-02-12 07:47:00,38.7,31.5,30.06,SW,229,0.0,0.0,75,0.00,,,0.00,Wunderground v.1.15,2013-02-12 12:47:00,
2013-02-12 07:50:00,38.8,32.5,30.06,SW,229,0.0,0.0,78,0.00,,,0.00,Wunderground v.1.15,2013-02-12 12:50:00,
2013-02-12 07:51:00,38.8,32.8,30.06,SW,229,0.0,0.0,79,0.00,,,0.00,Wunderground v.1.15,2013-02-12 12:51:00,
2013-02-12 07:52:00,38.7,32.7,30.07,SW,229,0.0,0.0,79,0.00,,,0.00,Wunderground v.1.15,2013-02-12 12:52:00,
2013-02-12 07:56:00,38.5,33.2,30.07,SW,229,0.0,0.0,81,0.00,,,0.00,Wunderground v.1.15,2013-02-12 12:56:00,
2013-02-12 07:57:00,38.4,33.1,30.06,SW,229,0.0,0.0,81,0.00,,,0.00,Wunderground v.1.15,2013-02-12 12:57:00,
2013-02-12 08:01:00,38.0,33.6,30.06,SW,229,0.0,0.0,84,0.00,,,0.00,Wunderground v.1.15,2013-02-12 13:01:00,
2013-02-12 08:02:00,37.9,33.5,30.06,SW,229,0.0,0.0,84,0.00,,,0.00,Wunderground v.1.15,2013-02-12 13:02:00,
2013-02-12 08:06:00,37.6,33.5,30.06,SW,229,0.0,0.0,85,0.00,,,0.00,Wunderground v.1.15,2013-02-12 13:06:00,
2013-02-12 08:07:00,37.6,33.5,30.06,SW,229,0.0,0.0,85,0.00,,,0.00,Wunderground v.1.15,2013-02-12 13:07:00,
2013-02-12 08:11:00,37.5,34.0,30.06,SW,229,0.0,0.0,87,0.00,,,0.00,Wunderground v.1.15,2013-02-12 13:11:00,
2013-02-12 08:12:00,37.5,34.0,30.06,SW,229,0.0,0.0,87,0.00,,,0.00,Wunderground v.1.15,2013-02-12 13:12:00,
2013-02-12 08:17:00,37.5,34.3,30.07,SW,229,0.0,0.0,88,0.00,,,0.00,Wunderground v.1.15,2013-02-12 13:17:00,
2013-02-12 08:22:00,37.3,34.4,30.08,SSW,211,0.0,0.0,89,0.00,,,0.00,Wunderground v.1.15,2013-02-12 13:22:00,
2013-02-12 08:27:00,37.4,33.9,30.09,SSW,211,0.0,0.0,87,0.00,,,0.00,Wunderground v.1.15,2013-02-12 13:27:00,
2013-02-12 08:28:00,37.5,33.7,30.09,SSW,211,0.0,0.0,86,0.00,,,0.00,Wunderground v.1.15,2013-02-12 13:28:00,
2013-02-12 08:32:00,38.4,33.4,30.09,SW,224,0.0,0.0,82,0.00,,,0.00,Wunderground v.1.15,2013-02-12 13:32:00,
2013-02-12 08:33:00,38.7,33.4,30.10,SW,224,0.0,0.0,81,0.00,,,0.00,Wunderground v.1.15,2013-02-12 13:33:00,
2013-02-12 08:37:00,39.8,33.2,30.10,WSW,248,0.0,0.0,77,0.00,,,0.00,Wunderground v.1.15,2013-02-12 13:37:00,
2013-02-12 08:38:00,40.1,32.5,30.09,WSW,248,0.0,0.0,74,0.00,,,0.00,Wunderground v.1.15,2013-02-12 13:38:00,
2013-02-12 08:42:00,41.0,33.7,30.09,WSW,256,0.0,0.0,75,0.00,,,0.00,Wunderground v.1.15,2013-02-12 13:42:00,
2013-02-12 08:43:00,41.1,34.1,30.08,West,274,0.0,0.0,76,0.00,,,0.00,Wunderground v.1.15,2013-02-12 13:43:00,
2013-02-12 08:47:00,41.7,33.0,30.08,WNW,302,0.0,1.0,71,0.00,,,0.00,Wunderground v.1.15,2013-02-12 13:47:00,
2013-02-12 08:48:00,41.9,35.5,30.08,WNW,302,0.0,1.0,78,0.00,,,0.00,Wunderground v.1.15,2013-02-12 13:48:00,
2013-02-12 08:52:00,42.1,35.4,30.08,WNW,302,0.0,0.0,77,0.00,,,0.00,Wunderground v.1.15,2013-02-12 13:52:00,
2013-02-12 08:53:00,42.1,35.7,30.08,WNW,302,0.0,0.0,78,0.00,,,0.00,Wunderground v.1.15,2013-02-12 13:53:00,
2013-02-12 08:54:00,42.1,35.4,30.08,WNW,302,0.0,0.0,77,0.00,,,0.00,Wunderground v.1.15,2013-02-12 13:54:00,
2013-02-12 08:57:00,42.2,34.5,30.08,WNW,302,0.0,0.0,74,0.00,,,0.00,Wunderground v.1.15,2013-02-12 13:57:00,
2013-02-12 08:58:00,42.3,33.2,30.08,WNW,302,0.0,0.0,70,0.00,,,0.00,Wunderground v.1.15,2013-02-12 13:58:00,
2013-02-12 08:59:00,42.3,33.6,30.08,WNW,302,0.0,0.0,71,0.00,,,0.00,Wunderground v.1.15,2013-02-12 13:59:00,
2013-02-12 09:02:00,42.9,33.1,30.09,WSW,248,0.0,0.0,68,0.00,,,0.00,Wunderground v.1.15,2013-02-12 14:02:00,
2013-02-12 09:03:00,43.0,32.8,30.09,WSW,248,0.0,0.0,67,0.00,,,0.00,Wunderground v.1.15,2013-02-12 14:03:00,
2013-02-12 09:04:00,43.1,32.5,30.09,WSW,248,0.0,0.0,66,0.00,,,0.00,Wunderground v.1.15,2013-02-12 14:04:00,
2013-02-12 09:07:00,43.7,33.8,30.10,WSW,246,0.0,0.0,68,0.00,,,0.00,Wunderground v.1.15,2013-02-12 14:07:00,
2013-02-12 09:08:00,43.8,34.6,30.10,WSW,246,0.0,0.0,70,0.00,,,0.00,Wunderground v.1.15,2013-02-12 14:08:00,
2013-02-12 09:09:00,43.8,33.9,30.10,WSW,246,0.0,0.0,68,0.00,,,0.00,Wunderground v.1.15,2013-02-12 14:09:00,
2013-02-12 09:13:00,44.3,33.3,30.09,WSW,250,0.0,0.0,65,0.00,,,0.00,Wunderground v.1.15,2013-02-12 14:13:00,
2013-02-12 09:14:00,44.4,33.7,30.09,WSW,250,0.0,0.0,66,0.00,,,0.00,Wunderground v.1.15,2013-02-12 14:14:00,
2013-02-12 09:18:00,45.0,34.3,30.09,West,261,0.0,0.0,66,0.00,,,0.00,Wunderground v.1.15,2013-02-12 14:18:00,
2013-02-12 09:19:00,45.2,34.1,30.09,West,262,0.0,0.0,65,0.00,,,0.00,Wunderground v.1.15,2013-02-12 14:19:00,
2013-02-12 09:23:00,45.7,35.0,30.09,West,262,0.0,0.0,66,0.00,,,0.00,Wunderground v.1.15,2013-02-12 14:23:00,
2013-02-12 09:24:00,45.8,34.7,30.09,West,261,0.0,0.0,65,0.00,,,0.00,Wunderground v.1.15,2013-02-12 14:24:00,
2013-02-12 09:28:00,46.1,35.7,30.09,West,262,0.0,0.0,67,0.00,,,0.00,Wunderground v.1.15,2013-02-12 14:28:00,
2013-02-12 09:29:00,46.2,33.9,30.10,West,261,0.0,0.0,62,0.00,,,0.00,Wunderground v.1.15,2013-02-12 14:29:00,
2013-02-12 09:30:00,46.2,33.9,30.10,West,261,0.0,0.0,62,0.00,,,0.00,Wunderground v.1.15,2013-02-12 14:30:00,
2013-02-12 09:33:00,46.5,35.4,30.10,West,261,0.0,0.0,65,0.00,,,0.00,Wunderground v.1.15,2013-02-12 14:33:00,
2013-02-12 09:35:00,46.6,34.3,30.10,NW,322,0.0,4.0,62,0.00,,,0.00,Wunderground v.1.15,2013-02-12 14:35:00,
2013-02-12 09:38:00,46.9,34.1,30.10,SW,215,1.0,4.0,61,0.00,,,0.00,Wunderground v.1.15,2013-02-12 14:38:00,
2013-02-12 09:40:00,47.0,35.0,30.10,SW,219,1.0,2.0,63,0.00,,,0.00,Wunderground v.1.15,2013-02-12 14:40:00,
2013-02-12 09:43:00,47.4,37.4,30.10,WSW,255,0.0,2.0,68,0.00,,,0.00,Wunderground v.1.15,2013-02-12 14:43:00,
2013-02-12 09:45:00,47.5,35.5,30.10,West,278,1.0,2.0,63,0.00,,,0.00,Wunderground v.1.15,2013-02-12 14:45:00,
2013-02-12 09:46:00,47.7,34.5,30.10,WNW,287,2.0,2.0,60,0.00,,,0.00,Wunderground v.1.15,2013-02-12 14:46:00,
2013-02-12 09:49:00,48.1,34.0,30.11,WSW,256,0.0,2.0,58,0.00,,,0.00,Wunderground v.1.15,2013-02-12 14:49:00,
2013-02-12 09:50:00,48.1,34.0,30.11,WSW,257,0.0,0.0,58,0.00,,,0.00,Wunderground v.1.15,2013-02-12 14:50:00,
2013-02-12 09:51:00,48.2,34.5,30.11,WNW,301,1.0,1.0,59,0.00,,,0.00,Wunderground v.1.15,2013-02-12 14:51:00,
2013-02-12 09:54:00,48.8,35.1,30.11,NW,319,0.0,2.0,59,0.00,,,0.00,Wunderground v.1.15,2013-02-12 14:54:00,
2013-02-12 09:55:00,48.9,33.4,30.11,NE,44,0.0,4.0,55,0.00,,,0.00,Wunderground v.1.15,2013-02-12 14:55:00,
2013-02-12 09:56:00,49.0,33.5,30.11,ENE,64,1.0,4.0,55,0.00,,,0.00,Wunderground v.1.15,2013-02-12 14:56:00,
2013-02-12 10:00:00,49.4,33.9,30.11,NE,41,1.0,1.0,55,0.00,,,0.00,Wunderground v.1.15,2013-02-12 15:00:00,
2013-02-12 10:01:00,49.4,33.9,30.11,NNW,347,2.0,2.0,55,0.00,,,0.00,Wunderground v.1.15,2013-02-12 15:01:00,
2013-02-12 10:02:00,49.5,34.0,30.10,NNW,336,0.0,2.0,55,0.00,,,0.00,Wunderground v.1.15,2013-02-12 15:02:00,
2013-02-12 10:05:00,49.9,35.3,30.11,WSW,252,1.0,2.0,57,0.00,,,0.00,Wunderground v.1.15,2013-02-12 15:05:00,
2013-02-12 10:06:00,49.9,35.3,30.11,NW,316,1.0,2.0,57,0.00,,,0.00,Wunderground v.1.15,2013-02-12 15:06:00,
2013-02-12 10:07:00,50.0,33.5,30.11,West,276,0.0,2.0,53,0.00,,,0.00,Wunderground v.1.15,2013-02-12 15:07:00,
2013-02-12 10:10:00,50.4,35.3,30.10,WNW,296,4.0,5.0,56,0.00,,,0.00,Wunderground v.1.15,2013-02-12 15:10:00,
2013-02-12 10:11:00,50.4,35.3,30.10,WNW,302,2.0,5.0,56,0.00,,,0.00,Wunderground v.1.15,2013-02-12 15:11:00,
2013-02-12 10:12:00,50.5,34.5,30.10,WNW,300,0.0,5.0,54,0.00,,,0.00,Wunderground v.1.15,2013-02-12 15:12:00,
2013-02-12 10:15:00,51.0,33.5,30.10,West,277,0.0,5.0,51,0.00,,,0.00,Wunderground v.1.15,2013-02-12 15:15:00,
2013-02-12 10:16:00,51.1,33.6,30.10,NW,304,2.0,5.0,51,0.00,,,0.00,Wunderground v.1.15,2013-02-12 15:16:00,
2013-02-12 10:17:00,51.2,33.7,30.10,WNW,290,0.0,5.0,51,0.00,,,0.00,Wunderground v.1.15,2013-02-12 15:17:00,
2013-02-12 10:21:00,51.8,33.2,30.09,ENE,65,2.0,2.0,49,0.00,,,0.00,Wunderground v.1.15,2013-02-12 15:21:00,
2013-02-12 10:22:00,51.8,33.2,30.09,NE,54,1.0,3.0,49,0.00,,,0.00,Wunderground v.1.15,2013-02-12 15:22:00,
2013-02-12 10:26:00,52.1,34.5,30.09,NE,44,0.0,3.0,51,0.00,,,0.00,Wunderground v.1.15,2013-02-12 15:26:00,
2013-02-12 10:27:00,52.2,34.1,30.09,SSW,211,0.0,3.0,50,0.00,,,0.00,Wunderground v.1.15,2013-02-12 15:27:00,
2013-02-12 10:31:00,52.2,33.1,30.10,SW,224,0.0,1.0,48,0.00,,,0.00,Wunderground v.1.15,2013-02-12 15:31:00,
2013-02-12 10:32:00,52.1,33.0,30.10,SW,224,0.0,1.0,48,0.00,,,0.00,Wunderground v.1.15,2013-02-12 15:32:00,
2013-02-12 10:36:00,52.2,33.6,30.10,WSW,240,1.0,1.0,49,0.00,,,0.00,Wunderground v.1.15,2013-02-12 15:36:00,
2013-02-12 10:37:00,52.3,33.2,30.10,WSW,240,0.0,1.0,48,0.00,,,0.00,Wunderground v.1.15,2013-02-12 15:37:00,
2013-02-12 10:41:00,52.6,33.5,30.10,NNE,20,0.0,0.0,48,0.00,,,0.00,Wunderground v.1.15,2013-02-12 15:41:00,
2013-02-12 10:42:00,52.8,33.6,30.10,NNW,335,1.0,1.0,48,0.00,,,0.00,Wunderground v.1.15,2013-02-12 15:42:00,
2013-02-12 10:43:00,52.8,34.2,30.10,West,269,2.0,2.0,49,0.00,,,0.00,Wunderground v.1.15,2013-02-12 15:43:00,
2013-02-12 10:46:00,53.1,32.8,30.10,WSW,245,0.0,2.0,46,0.00,,,0.00,Wunderground v.1.15,2013-02-12 15:46:00,
2013-02-12 10:47:00,53.2,34.5,30.10,NE,39,2.0,2.0,49,0.00,,,0.00,Wunderground v.1.15,2013-02-12 15:47:00,
2013-02-12 10:48:00,53.3,34.6,30.10,ENE,70,1.0,2.0,49,0.00,,,0.00,Wunderground v.1.15,2013-02-12 15:48:00,
2013-02-12 10:51:00,53.2,31.8,30.10,ENE,72,2.0,4.0,44,0.00,,,0.00,Wunderground v.1.15,2013-02-12 15:51:00,
2013-02-12 10:52:00,53.1,32.3,30.10,ENE,71,1.0,4.0,45,0.00,,,0.00,Wunderground v.1.15,2013-02-12 15:52:00,
2013-02-12 10:54:00,53.0,33.3,30.10,NW,319,1.0,4.0,47,0.00,,,0.00,Wunderground v.1.15,2013-02-12 15:54:00,
2013-02-12 10:56:00,53.0,32.2,30.09,East,98,0.0,4.0,45,0.00,,,0.00,Wunderground v.1.15,2013-02-12 15:56:00,
2013-02-12 10:57:00,53.1,33.9,30.09,NNE,25,4.0,4.0,48,0.00,,,0.00,Wunderground v.1.15,2013-02-12 15:57:00,
2013-02-12 10:59:00,53.1,32.8,30.09,NE,53,2.0,4.0,46,0.00,,,0.00,Wunderground v.1.15,2013-02-12 15:59:00,
2013-02-12 11:01:00,53.2,31.8,30.09,NNE,23,1.0,3.0,44,0.00,,,0.00,Wunderground v.1.15,2013-02-12 16:01:00,
2013-02-12 11:02:00,53.3,32.5,30.09,NE,41,0.0,3.0,45,0.00,,,0.00,Wunderground v.1.15,2013-02-12 16:02:00,
2013-02-12 11:04:00,53.4,33.1,30.09,ENE,68,5.0,5.0,46,0.00,,,0.00,Wunderground v.1.15,2013-02-12 16:04:00,
2013-02-12 11:06:00,53.5,32.7,30.09,NNE,18,2.0,5.0,45,0.00,,,0.00,Wunderground v.1.15,2013-02-12 16:06:00,
2013-02-12 11:08:00,53.6,32.8,30.09,WNW,293,1.0,5.0,45,0.00,,,0.00,Wunderground v.1.15,2013-02-12 16:08:00,
2013-02-12 11:09:00,53.7,30.5,30.09,WSW,253,1.0,5.0,41,0.00,,,0.00,Wunderground v.1.15,2013-02-12 16:09:00,
2013-02-12 11:11:00,53.7,32.3,30.09,West,274,3.0,3.0,44,0.00,,,0.00,Wunderground v.1.15,2013-02-12 16:11:00,
2013-02-12 11:13:00,53.8,31.2,30.09,West,278,0.0,3.0,42,0.00,,,0.00,Wunderground v.1.15,2013-02-12 16:13:00,
2013-02-12 11:15:00,53.9,31.3,30.08,SW,232,0.0,3.0,42,0.00,,,0.00,Wunderground v.1.15,2013-02-12 16:15:00,
2013-02-12 11:16:00,54.0,31.4,30.08,SW,233,0.0,3.0,42,0.00,,,0.00,Wunderground v.1.15,2013-02-12 16:16:00,
2013-02-12 11:18:00,54.3,31.7,30.08,East,79,1.0,3.0,42,0.00,,,0.00,Wunderground v.1.15,2013-02-12 16:18:00,
2013-02-12 11:20:00,54.3,31.7,30.08,ENE,67,3.0,3.0,42,0.00,,,0.00,Wunderground v.1.15,2013-02-12 16:20:00,
2013-02-12 11:22:00,54.1,30.3,30.08,NNE,29,3.0,5.0,40,0.00,,,0.00,Wunderground v.1.15,2013-02-12 16:22:00,
2013-02-12 11:24:00,54.0,30.2,30.08,ENE,68,1.0,5.0,40,0.00,,,0.00,Wunderground v.1.15,2013-02-12 16:24:00,
2013-02-12 11:25:00,54.0,30.8,30.07,NE,44,2.0,5.0,41,0.00,,,0.00,Wunderground v.1.15,2013-02-12 16:25:00,
2013-02-12 11:27:00,54.0,30.8,30.07,ENE,77,0.0,5.0,41,0.00,,,0.00,Wunderground v.1.15,2013-02-12 16:27:00,
2013-02-12 11:29:00,54.1,30.3,30.07,NNE,12,2.0,5.0,40,0.00,,,0.00,Wunderground v.1.15,2013-02-12 16:29:00,
2013-02-12 11:30:00,54.2,32.2,30.07,NW,307,0.0,2.0,43,0.00,,,0.00,Wunderground v.1.15,2013-02-12 16:30:00,
2013-02-12 11:32:00,54.4,33.5,30.07,ENE,64,1.0,2.0,45,0.00,,,0.00,Wunderground v.1.15,2013-02-12 16:32:00,
2013-02-12 11:34:00,54.6,32.5,30.07,East,95,1.0,3.0,43,0.00,,,0.00,Wunderground v.1.15,2013-02-12 16:34:00,
2013-02-12 11:36:00,54.6,30.7,30.07,East,80,2.0,3.0,40,0.00,,,0.00,Wunderground v.1.15,2013-02-12 16:36:00,
2013-02-12 11:37:00,54.6,30.7,30.07,ENE,68,2.0,3.0,40,0.00,,,0.00,Wunderground v.1.15,2013-02-12 16:37:00,
2013-02-12 11:39:00,54.7,31.4,30.07,NE,41,0.0,3.0,41,0.00,,,0.00,Wunderground v.1.15,2013-02-12 16:39:00,
2013-02-12 11:41:00,54.7,29.6,30.07,NE,41,1.0,4.0,38,0.00,,,0.00,Wunderground v.1.15,2013-02-12 16:41:00,
2013-02-12 11:42:00,54.7,28.9,30.07,ESE,117,0.0,4.0,37,0.00,,,0.00,Wunderground v.1.15,2013-02-12 16:42:00,
2013-02-12 11:44:00,54.7,29.6,30.07,ESE,117,0.0,4.0,38,0.00,,,0.00,Wunderground v.1.15,2013-02-12 16:44:00,
2013-02-12 11:46:00,54.7,29.6,30.06,NE,39,2.0,5.0,38,0.00,,,0.00,Wunderground v.1.15,2013-02-12 16:46:00,
2013-02-12 11:47:00,54.7,30.2,30.06,ENE,62,4.0,5.0,39,0.00,,,0.00,Wunderground v.1.15,2013-02-12 16:47:00,
2013-02-12 11:49:00,54.7,30.2,30.05,SW,225,1.0,5.0,39,0.00,,,0.00,Wunderground v.1.15,2013-02-12 16:49:00,
2013-02-12 11:51:00,54.7,29.6,30.06,NNE,32,0.0,4.0,38,0.00,,,0.00,Wunderground v.1.15,2013-02-12 16:51:00,
2013-02-12 11:52:00,54.8,30.3,30.06,ENE,73,2.0,4.0,39,0.00,,,0.00,Wunderground v.1.15,2013-02-12 16:52:00,
2013-02-12 11:54:00,54.8,28.3,30.05,East,86,0.0,4.0,36,0.00,,,0.00,Wunderground v.1.15,2013-02-12 16:54:00,
2013-02-12 11:56:00,54.9,29.1,30.05,SE,135,0.0,4.0,37,0.00,,,0.00,Wunderground v.1.15,2013-02-12 16:56:00,
2013-02-12 11:57:00,54.9,29.7,30.04,SE,135,0.0,4.0,38,0.00,,,0.00,Wunderground v.1.15,2013-02-12 16:57:00,
2013-02-12 11:59:00,55.1,29.3,30.04,NW,304,3.0,5.0,37,0.00,,,0.00,Wunderground v.1.15,2013-02-12 16:59:00,
2013-02-12 12:01:00,55.2,30.0,30.04,NE,47,3.0,4.0,38,0.00,,,0.00,Wunderground v.1.15,2013-02-12 17:01:00,
2013-02-12 12:02:00,55.3,29.4,30.04,ENE,67,3.0,4.0,37,0.00,,,0.00,Wunderground v.1.15,2013-02-12 17:02:00,
2013-02-12 12:04:00,55.2,29.4,30.04,SSW,194,0.0,4.0,37,0.00,,,0.00,Wunderground v.1.15,2013-02-12 17:04:00,
2013-02-12 12:06:00,55.4,29.5,30.04,East,94,1.0,5.0,37,0.00,,,0.00,Wunderground v.1.15,2013-02-12 17:06:00,
2013-02-12 12:07:00,55.5,29.6,30.04,NNW,328,2.0,5.0,37,0.00,,,0.00,Wunderground v.1.15,2013-02-12 17:07:00,
2013-02-12 12:08:00,55.5,29.6,30.04,NNW,328,1.0,5.0,37,0.00,,,0.00,Wunderground v.1.15,2013-02-12 17:08:00,
2013-02-12 12:09:00,55.5,28.3,30.04,NNW,336,0.0,5.0,35,0.00,,,0.00,Wunderground v.1.15,2013-02-12 17:09:00,
2013-02-12 12:11:00,55.7,28.4,30.05,South,188,3.0,4.0,35,0.00,,,0.00,Wunderground v.1.15,2013-02-12 17:11:00,
2013-02-12 12:13:00,55.8,28.5,30.05,SSE,150,1.0,4.0,35,0.00,,,0.00,Wunderground v.1.15,2013-02-12 17:13:00,
2013-02-12 12:14:00,55.8,28.5,30.05,ESE,117,0.0,4.0,35,0.00,,,0.00,Wunderground v.1.15,2013-02-12 17:14:00,
2013-02-12 12:17:00,56.0,28.7,30.06,WSW,237,2.0,6.0,35,0.00,,,0.00,Wunderground v.1.15,2013-02-12 17:17:00,
2013-02-12 12:18:00,56.1,29.5,30.06,West,260,0.0,6.0,36,0.00,,,0.00,Wunderground v.1.15,2013-02-12 17:18:00,
2013-02-12 12:20:00,56.2,28.9,30.06,West,260,0.0,1.0,35,0.00,,,0.00,Wunderground v.1.15,2013-02-12 17:20:00,
2013-02-12 12:22:00,56.5,29.1,30.06,West,260,0.0,1.0,35,0.00,,,0.00,Wunderground v.1.15,2013-02-12 17:22:00,
2013-02-12 12:23:00,56.7,29.3,30.06,SW,232,2.0,4.0,35,0.00,,,0.00,Wunderground v.1.15,2013-02-12 17:23:00,
2013-02-12 12:25:00,56.8,29.4,30.06,West,281,2.0,4.0,35,0.00,,,0.00,Wunderground v.1.15,2013-02-12 17:25:00,
2013-02-12 12:27:00,56.8,28.7,30.06,North,10,1.0,4.0,34,0.00,,,0.00,Wunderground v.1.15,2013-02-12 17:27:00,
2013-02-12 12:28:00,56.9,29.5,30.05,WSW,238,2.0,4.0,35,0.00,,,0.00,Wunderground v.1.15,2013-02-12 17:28:00,
2013-02-12 12:30:00,57.0,28.1,30.05,SW,216,1.0,2.0,33,0.00,,,0.00,Wunderground v.1.15,2013-02-12 17:30:00,
2013-02-12 12:32:00,57.0,29.6,30.05,WNW,285,3.0,3.0,35,0.00,,,0.00,Wunderground v.1.15,2013-02-12 17:32:00,
2013-02-12 12:33:00,57.0,30.3,30.05,SW,216,1.0,3.0,36,0.00,,,0.00,Wunderground v.1.15,2013-02-12 17:33:00,
2013-02-12 12:35:00,57.0,28.1,30.04,SE,143,1.0,3.0,33,0.00,,,0.00,Wunderground v.1.15,2013-02-12 17:35:00,
2013-02-12 12:37:00,57.0,28.9,30.04,SW,228,2.0,3.0,34,0.00,,,0.00,Wunderground v.1.15,2013-02-12 17:37:00,
2013-02-12 12:38:00,57.0,28.9,30.04,WSW,243,1.0,5.0,34,0.00,,,0.00,Wunderground v.1.15,2013-02-12 17:38:00,
2013-02-12 12:39:00,57.0,28.9,30.04,WSW,239,1.0,5.0,34,0.00,,,0.00,Wunderground v.1.15,2013-02-12 17:39:00,
2013-02-12 12:40:00,57.0,28.9,30.04,West,264,1.0,2.0,34,0.00,,,0.00,Wunderground v.1.15,2013-02-12 17:40:00,
2013-02-12 12:42:00,57.1,31.0,30.03,SW,225,0.0,2.0,37,0.00,,,0.00,Wunderground v.1.15,2013-02-12 17:42:00,
2013-02-12 12:44:00,57.2,29.8,30.03,SW,215,1.0,2.0,35,0.00,,,0.00,Wunderground v.1.15,2013-02-12 17:44:00,
2013-02-12 12:45:00,57.3,29.9,30.03,SSW,204,0.0,2.0,35,0.00,,,0.00,Wunderground v.1.15,2013-02-12 17:45:00,
2013-02-12 12:47:00,57.5,31.4,30.03,SE,142,0.0,2.0,37,0.00,,,0.00,Wunderground v.1.15,2013-02-12 17:47:00,
2013-02-12 12:49:00,57.6,28.7,30.03,WSW,255,2.0,5.0,33,0.00,,,0.00,Wunderground v.1.15,2013-02-12 17:49:00,
2013-02-12 12:50:00,57.6,28.7,30.02,WSW,257,1.0,2.0,33,0.00,,,0.00,Wunderground v.1.15,2013-02-12 17:50:00,
2013-02-12 12:52:00,57.6,30.8,30.02,WSW,239,0.0,2.0,36,0.00,,,0.00,Wunderground v.1.15,2013-02-12 17:52:00,
2013-02-12 12:54:00,57.6,30.1,30.02,East,87,0.0,2.0,35,0.00,,,0.00,Wunderground v.1.15,2013-02-12 17:54:00,
2013-02-12 12:55:00,57.6,29.4,30.02,SSE,162,1.0,2.0,34,0.00,,,0.00,Wunderground v.1.15,2013-02-12 17:55:00,
2013-02-12 12:57:00,57.6,30.1,30.02,SSW,212,0.0,2.0,35,0.00,,,0.00,Wunderground v.1.15,2013-02-12 17:57:00,
2013-02-12 12:59:00,57.6,27.9,30.02,SW,221,1.0,2.0,32,0.00,,,0.00,Wunderground v.1.15,2013-02-12 17:59:00,
2013-02-12 13:01:00,57.6,29.4,30.02,SW,232,1.0,3.0,34,0.00,,,0.00,Wunderground v.1.15,2013-02-12 18:01:00,
2013-02-12 13:02:00,57.5,28.6,30.02,SW,232,0.0,3.0,33,0.00,,,0.00,Wunderground v.1.15,2013-02-12 18:02:00,
2013-02-12 13:04:00,57.6,28.7,30.02,ENE,68,2.0,3.0,33,0.00,,,0.00,Wunderground v.1.15,2013-02-12 18:04:00,
2013-02-12 13:05:00,57.6,30.8,30.02,East,92,0.0,3.0,36,0.00,,,0.00,Wunderground v.1.15,2013-02-12 18:05:00,
2013-02-12 13:06:00,57.6,29.4,30.02,East,91,0.0,3.0,34,0.00,,,0.00,Wunderground v.1.15,2013-02-12 18:06:00,
2013-02-12 13:07:00,57.6,29.4,30.02,East,91,0.0,3.0,34,0.00,,,0.00,Wunderground v.1.15,2013-02-12 18:07:00,
2013-02-12 13:09:00,57.7,29.5,30.02,East,90,0.0,1.0,34,0.00,,,0.00,Wunderground v.1.15,2013-02-12 18:09:00,
2013-02-12 13:10:00,57.7,29.5,30.02,East,91,0.0,1.0,34,0.00,,,0.00,Wunderground v.1.15,2013-02-12 18:10:00,
2013-02-12 13:11:00,57.7,29.5,30.01,East,92,0.0,1.0,34,0.00,,,0.00,Wunderground v.1.15,2013-02-12 18:11:00,
2013-02-12 13:12:00,57.7,31.6,30.01,ENE,73,2.0,2.0,37,0.00,,,0.00,Wunderground v.1.15,2013-02-12 18:12:00,
2013-02-12 13:15:00,57.8,30.3,30.01,East,86,1.0,2.0,35,0.00,,,0.00,Wunderground v.1.15,2013-02-12 18:15:00,
2013-02-12 13:16:00,57.7,29.5,30.01,SSE,148,0.0,2.0,34,0.00,,,0.00,Wunderground v.1.15,2013-02-12 18:16:00,
2013-02-12 13:18:00,57.8,29.6,30.01,SSW,206,1.0,2.0,34,0.00,,,0.00,Wunderground v.1.15,2013-02-12 18:18:00,
2013-02-12 13:20:00,57.9,28.9,30.01,SSW,210,0.0,1.0,33,0.00,,,0.00,Wunderground v.1.15,2013-02-12 18:20:00,
2013-02-12 13:22:00,58.0,29.0,30.01,WSW,257,1.0,2.0,33,0.00,,,0.00,Wunderground v.1.15,2013-02-12 18:22:00,
2013-02-12 13:23:00,57.9,28.2,30.01,West,279,0.0,2.0,32,0.00,,,0.00,Wunderground v.1.15,2013-02-12 18:23:00,
2013-02-12 13:25:00,57.9,28.2,30.01,SW,218,2.0,2.0,32,0.00,,,0.00,Wunderground v.1.15,2013-02-12 18:25:00,
2013-02-12 13:27:00,57.9,28.2,30.01,WSW,240,1.0,2.0,32,0.00,,,0.00,Wunderground v.1.15,2013-02-12 18:27:00,
2013-02-12 13:28:00,57.9,28.2,30.01,SW,222,2.0,2.0,32,0.00,,,0.00,Wunderground v.1.15,2013-02-12 18:28:00,
2013-02-12 13:30:00,57.8,27.3,30.01,West,268,1.0,3.0,31,0.00,,,0.00,Wunderground v.1.15,2013-02-12 18:30:00,
2013-02-12 13:31:00,57.8,27.3,30.01,West,269,1.0,3.0,31,0.00,,,0.00,Wunderground v.1.15,2013-02-12 18:31:00,
2013-02-12 13:33:00,57.7,27.2,30.01,WNW,284,1.0,3.0,31,0.00,,,0.00,Wunderground v.1.15,2013-02-12 18:33:00,
2013-02-12 13:36:00,57.7,27.2,30.01,NW,305,0.0,3.0,31,0.00,,,0.00,Wunderground v.1.15,2013-02-12 18:36:00,
2013-02-12 13:38:00,57.7,28.0,30.01,West,276,1.0,3.0,32,0.00,,,0.00,Wunderground v.1.15,2013-02-12 18:38:00,
2013-02-12 13:39:00,57.7,27.2,30.01,WSW,250,2.0,3.0,31,0.00,,,0.00,Wunderground v.1.15,2013-02-12 18:39:00,
2013-02-12 13:41:00,57.8,29.6,30.01,SSW,210,2.0,2.0,34,0.00,,,0.00,Wunderground v.1.15,2013-02-12 18:41:00,
2013-02-12 13:43:00,57.8,28.1,30.01,WSW,239,1.0,4.0,32,0.00,,,0.00,Wunderground v.1.15,2013-02-12 18:43:00,
2013-02-12 13:44:00,57.8,27.3,30.01,SW,233,2.0,4.0,31,0.00,,,0.00,Wunderground v.1.15,2013-02-12 18:44:00,
2013-02-12 13:46:00,57.7,27.2,30.01,West,265,3.0,4.0,31,0.00,,,0.00,Wunderground v.1.15,2013-02-12 18:46:00,
2013-02-12 13:49:00,57.6,28.7,30.01,NW,304,0.0,4.0,33,0.00,,,0.00,Wunderground v.1.15,2013-02-12 18:49:00,
2013-02-12 13:51:00,57.8,28.1,30.01,WNW,284,1.0,2.0,32,0.00,,,0.00,Wunderground v.1.15,2013-02-12 18:51:00,
2013-02-12 13:54:00,57.8,28.1,30.01,SW,222,3.0,3.0,32,0.00,,,0.00,Wunderground v.1.15,2013-02-12 18:54:00,
2013-02-12 13:56:00,57.7,27.2,30.02,WSW,239,0.0,4.0,31,0.00,,,0.00,Wunderground v.1.15,2013-02-12 18:56:00,
2013-02-12 13:59:00,57.7,29.5,30.01,WSW,239,1.0,4.0,34,0.00,,,0.00,Wunderground v.1.15,2013-02-12 18:59:00,
2013-02-12 14:02:00,57.9,29.7,30.01,NW,314,1.0,3.0,34,0.00,,,0.00,Wunderground v.1.15,2013-02-12 19:02:00,
2013-02-12 14:04:00,58.0,28.3,30.01,WSW,253,1.0,3.0,32,0.00,,,0.00,Wunderground v.1.15,2013-02-12 19:04:00,
2013-02-12 14:07:00,57.9,28.9,30.01,West,270,1.0,3.0,33,0.00,,,0.00,Wunderground v.1.15,2013-02-12 19:07:00,
2013-02-12 14:09:00,57.8,28.1,30.00,WNW,289,1.0,3.0,32,0.00,,,0.00,Wunderground v.1.15,2013-02-12 19:09:00,
2013-02-12 14:12:00,57.8,28.9,30.00,NW,319,0.0,1.0,33,0.00,,,0.00,Wunderground v.1.15,2013-02-12 19:12:00,
2013-02-12 14:14:00,57.9,28.9,30.00,ENE,75,0.0,1.0,33,0.00,,,0.00,Wunderground v.1.15,2013-02-12 19:14:00,
2013-02-12 14:17:00,57.8,30.3,30.00,ENE,66,1.0,1.0,35,0.00,,,0.00,Wunderground v.1.15,2013-02-12 19:17:00,
2013-02-12 14:19:00,57.8,28.1,30.00,WNW,284,1.0,1.0,32,0.00,,,0.00,Wunderground v.1.15,2013-02-12 19:19:00,
2013-02-12 14:20:00,57.8,28.1,30.00,WNW,284,1.0,1.0,32,0.00,,,0.00,Wunderground v.1.15,2013-02-12 19:20:00,
2013-02-12 14:22:00,57.8,27.3,30.00,WNW,284,0.0,1.0,31,0.00,,,0.00,Wunderground v.1.15,2013-02-12 19:22:00,
2013-02-12 14:25:00,57.7,27.2,30.00,WSW,243,2.0,3.0,31,0.00,,,0.00,Wunderground v.1.15,2013-02-12 19:25:00,
2013-02-12 14:27:00,57.6,26.4,30.01,SW,236,1.0,3.0,30,0.00,,,0.00,Wunderground v.1.15,2013-02-12 19:27:00,
2013-02-12 14:28:00,57.6,27.2,30.01,SW,224,2.0,3.0,31,0.00,,,0.00,Wunderground v.1.15,2013-02-12 19:28:00,
2013-02-12 14:30:00,57.6,28.7,30.01,SE,143,1.0,1.0,33,0.00,,,0.00,Wunderground v.1.15,2013-02-12 19:30:00,
2013-02-12 14:32:00,57.6,27.2,30.01,SW,231,1.0,3.0,31,0.00,,,0.00,Wunderground v.1.15,2013-02-12 19:32:00,
2013-02-12 14:33:00,57.6,27.9,30.01,South,187,2.0,3.0,32,0.00,,,0.00,Wunderground v.1.15,2013-02-12 19:33:00,
2013-02-12 14:35:00,57.6,27.9,30.01,SW,235,1.0,3.0,32,0.00,,,0.00,Wunderground v.1.15,2013-02-12 19:35:00,
2013-02-12 14:36:00,57.6,27.9,30.01,WSW,240,1.0,3.0,32,0.00,,,0.00,Wunderground v.1.15,2013-02-12 19:36:00,
2013-02-12 14:37:00,57.5,27.8,30.01,SW,236,1.0,3.0,32,0.00,,,0.00,Wunderground v.1.15,2013-02-12 19:37:00,
2013-02-12 14:38:00,57.5,29.3,30.01,SW,226,1.0,3.0,34,0.00,,,0.00,Wunderground v.1.15,2013-02-12 19:38:00,
2013-02-12 14:40:00,57.5,27.8,30.01,SW,224,1.0,1.0,32,0.00,,,0.00,Wunderground v.1.15,2013-02-12 19:40:00,
2013-02-12 14:41:00,57.5,28.6,30.01,SW,224,1.0,1.0,33,0.00,,,0.00,Wunderground v.1.15,2013-02-12 19:41:00,
2013-02-12 14:42:00,57.6,27.9,30.01,SW,224,0.0,1.0,32,0.00,,,0.00,Wunderground v.1.15,2013-02-12 19:42:00,
2013-02-12 14:43:00,57.6,28.7,30.01,SW,233,2.0,2.0,33,0.00,,,0.00,Wunderground v.1.15,2013-02-12 19:43:00,
2013-02-12 14:45:00,57.6,27.9,30.01,WSW,246,2.0,3.0,32,0.00,,,0.00,Wunderground v.1.15,2013-02-12 19:45:00,
2013-02-12 14:46:00,57.6,27.2,30.01,WSW,242,0.0,3.0,31,0.00,,,0.00,Wunderground v.1.15,2013-02-12 19:46:00,
2013-02-12 14:47:00,57.5,27.8,30.01,WSW,243,1.0,3.0,32,0.00,,,0.00,Wunderground v.1.15,2013-02-12 19:47:00,
2013-02-12 14:48:00,57.5,27.8,30.01,SW,236,1.0,3.0,32,0.00,,,0.00,Wunderground v.1.15,2013-02-12 19:48:00,
2013-02-12 14:50:00,57.5,27.8,30.00,SSW,204,0.0,1.0,32,0.00,,,0.00,Wunderground v.1.15,2013-02-12 19:50:00,
2013-02-12 14:51:00,57.4,27.7,30.00,West,274,2.0,2.0,32,0.00,,,0.00,Wunderground v.1.15,2013-02-12 19:51:00,
2013-02-12 14:53:00,57.4,27.7,30.00,SW,221,3.0,4.0,32,0.00,,,0.00,Wunderground v.1.15,2013-02-12 19:53:00,
2013-02-12 14:55:00,57.3,26.1,30.01,WSW,256,2.0,4.0,30,0.00,,,0.00,Wunderground v.1.15,2013-02-12 19:55:00,
2013-02-12 14:56:00,57.3,26.9,30.00,SW,224,3.0,4.0,31,0.00,,,0.00,Wunderground v.1.15,2013-02-12 19:56:00,
2013-02-12 14:59:00,57.2,26.8,30.00,NW,315,1.0,4.0,31,0.00,,,0.00,Wunderground v.1.15,2013-02-12 19:59:00,
2013-02-12 15:00:00,57.1,26.7,30.00,WSW,242,3.0,4.0,31,0.00,,,0.00,Wunderground v.1.15,2013-02-12 20:00:00,
2013-02-12 15:01:00,57.1,26.7,30.00,SSW,210,3.0,5.0,31,0.00,,,0.00,Wunderground v.1.15,2013-02-12 20:01:00,
2013-02-12 15:04:00,57.1,25.9,30.00,SW,224,0.0,5.0,30,0.00,,,0.00,Wunderground v.1.15,2013-02-12 20:04:00,
2013-02-12 15:05:00,57.0,25.8,29.99,SW,221,3.0,5.0,30,0.00,,,0.00,Wunderground v.1.15,2013-02-12 20:05:00,
2013-02-12 15:06:00,57.0,25.8,29.99,SW,227,2.0,5.0,30,0.00,,,0.00,Wunderground v.1.15,2013-02-12 20:06:00,
2013-02-12 15:09:00,57.0,26.6,29.99,WSW,255,0.0,5.0,31,0.00,,,0.00,Wunderground v.1.15,2013-02-12 20:09:00,
2013-02-12 15:10:00,57.0,26.6,29.99,WSW,255,0.0,2.0,31,0.00,,,0.00,Wunderground v.1.15,2013-02-12 20:10:00,
2013-02-12 15:11:00,57.0,26.6,29.99,WSW,255,1.0,2.0,31,0.00,,,0.00,Wunderground v.1.15,2013-02-12 20:11:00,
2013-02-12 15:14:00,57.0,25.0,29.99,SW,235,1.0,3.0,29,0.00,,,0.00,Wunderground v.1.15,2013-02-12 20:14:00,
2013-02-12 15:16:00,56.9,26.5,30.00,SSW,211,2.0,3.0,31,0.00,,,0.00,Wunderground v.1.15,2013-02-12 20:16:00,
2013-02-12 15:17:00,56.9,24.9,29.99,SW,232,2.0,3.0,29,0.00,,,0.00,Wunderground v.1.15,2013-02-12 20:17:00,
2013-02-12 15:19:00,56.8,25.7,30.00,WSW,245,1.0,4.0,30,0.00,,,0.00,Wunderground v.1.15,2013-02-12 20:19:00,
2013-02-12 15:21:00,56.8,25.7,30.00,WSW,250,2.0,3.0,30,0.00,,,0.00,Wunderground v.1.15,2013-02-12 20:21:00,
2013-02-12 15:22:00,56.8,25.7,29.99,WSW,250,1.0,3.0,30,0.00,,,0.00,Wunderground v.1.15,2013-02-12 20:22:00,
2013-02-12 15:24:00,56.7,25.6,30.00,SW,228,1.0,3.0,30,0.00,,,0.00,Wunderground v.1.15,2013-02-12 20:24:00,
2013-02-12 15:26:00,56.7,26.4,29.99,SW,226,0.0,3.0,31,0.00,,,0.00,Wunderground v.1.15,2013-02-12 20:26:00,
2013-02-12 15:27:00,56.7,27.1,29.99,SW,226,0.0,3.0,32,0.00,,,0.00,Wunderground v.1.15,2013-02-12 20:27:00,
2013-02-12 15:29:00,56.7,27.1,29.99,SW,226,0.0,3.0,32,0.00,,,0.00,Wunderground v.1.15,2013-02-12 20:29:00,
2013-02-12 15:30:00,56.7,26.4,29.99,SW,226,1.0,1.0,31,0.00,,,0.00,Wunderground v.1.15,2013-02-12 20:30:00,
2013-02-12 15:32:00,56.7,26.4,29.99,SW,221,0.0,2.0,31,0.00,,,0.00,Wunderground v.1.15,2013-02-12 20:32:00,
2013-02-12 15:34:00,56.7,28.6,30.00,West,264,2.0,2.0,34,0.00,,,0.00,Wunderground v.1.15,2013-02-12 20:34:00,
2013-02-12 15:35:00,56.6,27.0,30.00,WSW,252,2.0,2.0,32,0.00,,,0.00,Wunderground v.1.15,2013-02-12 20:35:00,
2013-02-12 15:37:00,56.6,27.0,30.00,WSW,257,1.0,2.0,32,0.00,,,0.00,Wunderground v.1.15,2013-02-12 20:37:00,
2013-02-12 15:40:00,56.5,27.0,30.00,WSW,258,1.0,1.0,32,0.00,,,0.00,Wunderground v.1.15,2013-02-12 20:40:00,
2013-02-12 15:42:00,56.4,26.1,30.00,West,259,1.0,1.0,31,0.00,,,0.00,Wunderground v.1.15,2013-02-12 20:42:00,
2013-02-12 15:45:00,56.4,28.3,30.00,WSW,238,1.0,2.0,34,0.00,,,0.00,Wunderground v.1.15,2013-02-12 20:45:00,
2013-02-12 15:47:00,56.4,26.9,30.00,WSW,245,1.0,2.0,32,0.00,,,0.00,Wunderground v.1.15,2013-02-12 20:47:00,
2013-02-12 15:50:00,56.3,27.5,30.00,WSW,237,1.0,1.0,33,0.00,,,0.00,Wunderground v.1.15,2013-02-12 20:50:00,
2013-02-12 15:52:00,56.2,28.9,30.00,WSW,239,0.0,1.0,35,0.00,,,0.00,Wunderground v.1.15,2013-02-12 20:52:00,
2013-02-12 15:53:00,56.2,28.9,30.00,WSW,239,0.0,1.0,35,0.00,,,0.00,Wunderground v.1.15,2013-02-12 20:53:00,
2013-02-12 15:55:00,56.2,28.2,30.00,WSW,239,0.0,1.0,34,0.00,,,0.00,Wunderground v.1.15,2013-02-12 20:55:00,
2013-02-12 15:57:00,56.1,28.1,30.00,WSW,239,0.0,1.0,34,0.00,,,0.00,Wunderground v.1.15,2013-02-12 20:57:00,
2013-02-12 15:58:00,56.1,27.4,30.00,WSW,240,1.0,1.0,33,0.00,,,0.00,Wunderground v.1.15,2013-02-12 20:58:00,
2013-02-12 16:00:00,56.0,27.3,30.00,SW,233,1.0,1.0,33,0.00,,,0.00,Wunderground v.1.15,2013-02-12 21:00:00,
2013-02-12 16:03:00,56.0,27.3,30.00,SW,233,0.0,1.0,33,0.00,,,0.00,Wunderground v.1.15,2013-02-12 21:03:00,
2013-02-12 16:05:00,56.0,28.0,30.00,SW,233,0.0,1.0,34,0.00,,,0.00,Wunderground v.1.15,2013-02-12 21:05:00,
2013-02-12 16:08:00,55.9,33.1,30.00,SW,233,0.0,1.0,42,0.00,,,0.00,Wunderground v.1.15,2013-02-12 21:08:00,
2013-02-12 16:10:00,55.8,31.8,30.00,SW,233,0.0,0.0,40,0.00,,,0.00,Wunderground v.1.15,2013-02-12 21:10:00,
2013-02-12 16:14:00,55.5,29.6,30.00,SW,233,0.0,0.0,37,0.00,,,0.00,Wunderground v.1.15,2013-02-12 21:14:00,
2013-02-12 16:15:00,55.5,29.0,29.99,SW,233,0.0,0.0,36,0.00,,,0.00,Wunderground v.1.15,2013-02-12 21:15:00,
2013-02-12 16:16:00,55.5,29.6,29.99,SW,233,0.0,0.0,37,0.00,,,0.00,Wunderground v.1.15,2013-02-12 21:16:00,
2013-02-12 16:19:00,55.4,30.2,29.99,SW,233,0.0,0.0,38,0.00,,,0.00,Wunderground v.1.15,2013-02-12 21:19:00,
2013-02-12 16:20:00,55.4,29.5,30.00,SW,233,0.0,0.0,37,0.00,,,0.00,Wunderground v.1.15,2013-02-12 21:20:00,
2013-02-12 16:21:00,55.3,29.4,30.00,SW,233,0.0,0.0,37,0.00,,,0.00,Wunderground v.1.15,2013-02-12 21:21:00,
2013-02-12 16:24:00,55.2,30.0,30.00,SW,233,0.0,0.0,38,0.00,,,0.00,Wunderground v.1.15,2013-02-12 21:24:00,
2013-02-12 16:26:00,55.1,29.3,30.00,SW,233,0.0,0.0,37,0.00,,,0.00,Wunderground v.1.15,2013-02-12 21:26:00,
2013-02-12 16:29:00,55.0,29.8,30.00,SW,233,0.0,0.0,38,0.00,,,0.00,Wunderground v.1.15,2013-02-12 21:29:00,
2013-02-12 16:31:00,54.9,29.7,30.00,SW,233,0.0,0.0,38,0.00,,,0.00,Wunderground v.1.15,2013-02-12 21:31:00,
2013-02-12 16:34:00,54.8,32.7,30.00,SW,233,0.0,0.0,43,0.00,,,0.00,Wunderground v.1.15,2013-02-12 21:34:00,
2013-02-12 16:36:00,54.7,34.3,30.00,SW,233,0.0,0.0,46,0.00,,,0.00,Wunderground v.1.15,2013-02-12 21:36:00,
2013-02-12 16:40:00,54.5,33.0,30.00,SW,233,0.0,0.0,44,0.00,,,0.00,Wunderground v.1.15,2013-02-12 21:40:00,
2013-02-12 16:41:00,54.4,32.3,30.00,SW,233,0.0,0.0,43,0.00,,,0.00,Wunderground v.1.15,2013-02-12 21:41:00,
2013-02-12 16:45:00,54.2,31.6,30.00,SW,233,0.0,0.0,42,0.00,,,0.00,Wunderground v.1.15,2013-02-12 21:45:00,
2013-02-12 16:46:00,54.1,32.1,30.00,SW,233,0.0,0.0,43,0.00,,,0.00,Wunderground v.1.15,2013-02-12 21:46:00,
2013-02-12 16:50:00,53.9,32.5,30.00,SW,233,0.0,0.0,44,0.00,,,0.00,Wunderground v.1.15,2013-02-12 21:50:00,
2013-02-12 16:51:00,53.8,32.9,30.00,SW,233,0.0,0.0,45,0.00,,,0.00,Wunderground v.1.15,2013-02-12 21:51:00,
2013-02-12 16:55:00,53.6,32.8,29.99,SW,233,0.0,0.0,45,0.00,,,0.00,Wunderground v.1.15,2013-02-12 21:55:00,
2013-02-12 16:56:00,53.5,32.7,30.00,SW,233,0.0,0.0,45,0.00,,,0.00,Wunderground v.1.15,2013-02-12 21:56:00,
2013-02-12 16:57:00,53.5,32.7,30.00,SW,233,0.0,0.0,45,0.00,,,0.00,Wunderground v.1.15,2013-02-12 21:57:00,
2013-02-12 17:01:00,53.4,31.4,29.99,SW,233,0.0,0.0,43,0.00,,,0.00,Wunderground v.1.15,2013-02-12 22:01:00,
2013-02-12 17:02:00,53.4,30.9,29.99,SW,233,0.0,0.0,42,0.00,,,0.00,Wunderground v.1.15,2013-02-12 22:02:00,
2013-02-12 17:06:00,53.3,30.8,29.98,SW,233,0.0,0.0,42,0.00,,,0.00,Wunderground v.1.15,2013-02-12 22:06:00,
2013-02-12 17:07:00,53.3,30.8,29.99,SW,233,0.0,0.0,42,0.00,,,0.00,Wunderground v.1.15,2013-02-12 22:07:00,
2013-02-12 17:11:00,53.3,31.4,29.98,SW,233,0.0,0.0,43,0.00,,,0.00,Wunderground v.1.15,2013-02-12 22:11:00,
2013-02-12 17:12:00,53.3,30.8,29.98,SW,233,0.0,0.0,42,0.00,,,0.00,Wunderground v.1.15,2013-02-12 22:12:00,
2013-02-12 17:16:00,53.3,31.4,29.98,SW,233,0.0,0.0,43,0.00,,,0.00,Wunderground v.1.15,2013-02-12 22:16:00,
2013-02-12 17:18:00,53.2,30.7,29.98,SW,233,0.0,0.0,42,0.00,,,0.00,Wunderground v.1.15,2013-02-12 22:18:00,
2013-02-12 17:21:00,53.1,31.2,29.98,SW,233,0.0,0.0,43,0.00,,,0.00,Wunderground v.1.15,2013-02-12 22:21:00,
2013-02-12 17:23:00,52.9,30.4,29.98,SW,233,0.0,0.0,42,0.00,,,0.00,Wunderground v.1.15,2013-02-12 22:23:00,
2013-02-12 17:26:00,52.8,30.9,29.98,SW,233,0.0,0.0,43,0.00,,,0.00,Wunderground v.1.15,2013-02-12 22:26:00,
2013-02-12 17:28:00,52.7,31.9,29.98,SW,233,0.0,0.0,45,0.00,,,0.00,Wunderground v.1.15,2013-02-12 22:28:00,
2013-02-12 17:29:00,52.7,31.9,29.98,SW,233,0.0,0.0,45,0.00,,,0.00,Wunderground v.1.15,2013-02-12 22:29:00,
2013-02-12 17:31:00,52.6,31.8,29.97,SW,233,0.0,0.0,45,0.00,,,0.00,Wunderground v.1.15,2013-02-12 22:31:00,
2013-02-12 17:33:00,52.5,32.3,29.97,SW,233,0.0,0.0,46,0.00,,,0.00,Wunderground v.1.15,2013-02-12 22:33:00,
2013-02-12 17:34:00,52.4,32.2,29.97,SW,233,0.0,0.0,46,0.00,,,0.00,Wunderground v.1.15,2013-02-12 22:34:00,
2013-02-12 17:36:00,52.3,32.1,29.97,SW,233,0.0,0.0,46,0.00,,,0.00,Wunderground v.1.15,2013-02-12 22:36:00,
2013-02-12 17:38:00,52.2,32.6,29.97,SW,233,0.0,0.0,47,0.00,,,0.00,Wunderground v.1.15,2013-02-12 22:38:00,
2013-02-12 17:39:00,52.2,32.6,29.97,SW,233,0.0,0.0,47,0.00,,,0.00,Wunderground v.1.15,2013-02-12 22:39:00,
2013-02-12 17:41:00,52.0,31.3,29.97,SW,233,0.0,0.0,45,0.00,,,0.00,Wunderground v.1.15,2013-02-12 22:41:00,
2013-02-12 17:44:00,52.0,31.3,29.97,SW,233,0.0,0.0,45,0.00,,,0.00,Wunderground v.1.15,2013-02-12 22:44:00,
2013-02-12 17:46:00,51.9,30.6,29.96,SW,233,0.0,0.0,44,0.00,,,0.00,Wunderground v.1.15,2013-02-12 22:46:00,
2013-02-12 17:49:00,51.9,30.6,29.97,SW,233,0.0,0.0,44,0.00,,,0.00,Wunderground v.1.15,2013-02-12 22:49:00,
2013-02-12 17:51:00,51.8,30.6,29.98,SW,233,0.0,0.0,44,0.00,,,0.00,Wunderground v.1.15,2013-02-12 22:51:00,
2013-02-12 17:54:00,52.0,30.7,29.98,SW,233,0.0,0.0,44,0.00,,,0.00,Wunderground v.1.15,2013-02-12 22:54:00,
2013-02-12 17:57:00,52.0,31.3,29.98,SW,233,0.0,0.0,45,0.00,,,0.00,Wunderground v.1.15,2013-02-12 22:57:00,
2013-02-12 17:59:00,51.9,31.2,29.98,SW,233,0.0,0.0,45,0.00,,,0.00,Wunderground v.1.15,2013-02-12 22:59:00,
2013-02-12 18:02:00,51.8,31.1,29.97,SW,233,0.0,0.0,45,0.00,,,0.00,Wunderground v.1.15,2013-02-12 23:02:00,
2013-02-12 18:04:00,51.6,30.9,29.97,SW,233,0.0,0.0,45,0.00,,,0.00,Wunderground v.1.15,2013-02-12 23:04:00,
2013-02-12 18:07:00,51.5,30.3,29.98,SW,233,0.0,0.0,44,0.00,,,0.00,Wunderground v.1.15,2013-02-12 23:07:00,
2013-02-12 18:09:00,51.5,31.4,29.97,SW,233,0.0,0.0,46,0.00,,,0.00,Wunderground v.1.15,2013-02-12 23:09:00,
2013-02-12 18:10:00,51.5,31.4,29.97,SW,233,0.0,0.0,46,0.00,,,0.00,Wunderground v.1.15,2013-02-12 23:10:00,
2013-02-12 18:12:00,51.4,31.8,29.96,SW,233,0.0,0.0,47,0.00,,,0.00,Wunderground v.1.15,2013-02-12 23:12:00,
2013-02-12 18:15:00,51.4,30.7,29.96,SW,233,0.0,0.0,45,0.00,,,0.00,Wunderground v.1.15,2013-02-12 23:15:00,
2013-02-12 18:17:00,51.4,31.3,29.96,SW,233,0.0,0.0,46,0.00,,,0.00,Wunderground v.1.15,2013-02-12 23:17:00,
2013-02-12 18:20:00,51.4,30.2,29.96,SW,233,0.0,0.0,44,0.00,,,0.00,Wunderground v.1.15,2013-02-12 23:20:00,
2013-02-12 18:21:00,51.4,30.7,29.97,SW,233,0.0,0.0,45,0.00,,,0.00,Wunderground v.1.15,2013-02-12 23:21:00,
2013-02-12 18:22:00,51.4,31.3,29.97,SW,233,0.0,0.0,46,0.00,,,0.00,Wunderground v.1.15,2013-02-12 23:22:00,
2013-02-12 18:25:00,51.3,31.2,29.97,SW,233,0.0,0.0,46,0.00,,,0.00,Wunderground v.1.15,2013-02-12 23:25:00,
2013-02-12 18:26:00,51.2,31.1,29.97,SW,233,0.0,0.0,46,0.00,,,0.00,Wunderground v.1.15,2013-02-12 23:26:00,
2013-02-12 18:27:00,51.1,29.9,29.97,SW,233,0.0,0.0,44,0.00,,,0.00,Wunderground v.1.15,2013-02-12 23:27:00,
2013-02-12 18:28:00,51.1,29.9,29.97,SW,233,0.0,0.0,44,0.00,,,0.00,Wunderground v.1.15,2013-02-12 23:28:00,
2013-02-12 18:30:00,51.0,30.4,29.97,SW,233,0.0,0.0,45,0.00,,,0.00,Wunderground v.1.15,2013-02-12 23:30:00,
2013-02-12 18:31:00,50.9,30.3,29.98,SW,233,0.0,0.0,45,0.00,,,0.00,Wunderground v.1.15,2013-02-12 23:31:00,
2013-02-12 18:32:00,50.8,30.2,29.98,SW,233,0.0,0.0,45,0.00,,,0.00,Wunderground v.1.15,2013-02-12 23:32:00,
2013-02-12 18:33:00,50.8,30.2,29.98,SW,233,0.0,0.0,45,0.00,,,0.00,Wunderground v.1.15,2013-02-12 23:33:00,
2013-02-12 18:35:00,50.8,30.2,29.97,SW,233,0.0,0.0,45,0.00,,,0.00,Wunderground v.1.15,2013-02-12 23:35:00,
2013-02-12 18:36:00,50.7,30.7,29.97,SW,233,0.0,0.0,46,0.00,,,0.00,Wunderground v.1.15,2013-02-12 23:36:00,
2013-02-12 18:38:00,50.7,31.2,29.97,SW,233,0.0,0.0,47,0.00,,,0.00,Wunderground v.1.15,2013-02-12 23:38:00,
2013-02-12 18:40:00,50.7,31.2,29.96,SW,233,0.0,0.0,47,0.00,,,0.00,Wunderground v.1.15,2013-02-12 23:40:00,
2013-02-12 18:41:00,50.7,31.7,29.95,SW,233,0.0,0.0,48,0.00,,,0.00,Wunderground v.1.15,2013-02-12 23:41:00,
2013-02-12 18:43:00,50.7,32.7,29.95,SW,233,0.0,1.0,50,0.00,,,0.00,Wunderground v.1.15,2013-02-12 23:43:00,
2013-02-12 18:45:00,50.6,33.6,29.94,SW,233,0.0,1.0,52,0.00,,,0.00,Wunderground v.1.15,2013-02-12 23:45:00,
2013-02-12 18:46:00,50.6,33.6,29.94,SW,233,0.0,1.0,52,0.00,,,0.00,Wunderground v.1.15,2013-02-12 23:46:00,
2013-02-12 18:48:00,50.4,33.9,29.94,SW,233,0.0,1.0,53,0.00,,,0.00,Wunderground v.1.15,2013-02-12 23:48:00,
2013-02-12 18:49:00,50.4,32.9,29.94,SW,233,0.0,1.0,51,0.00,,,0.00,Wunderground v.1.15,2013-02-12 23:49:00,
2013-02-12 18:51:00,50.3,32.4,29.94,SW,233,0.0,0.0,50,0.00,,,0.00,Wunderground v.1.15,2013-02-12 23:51:00,
2013-02-12 18:53:00,50.3,32.8,29.94,SW,233,0.0,0.0,51,0.00,,,0.00,Wunderground v.1.15,2013-02-12 23:53:00,
2013-02-12 18:54:00,50.3,33.3,29.94,SW,233,0.0,0.0,52,0.00,,,0.00,Wunderground v.1.15,2013-02-12 23:54:00,
2013-02-12 18:56:00,50.3,33.8,29.94,SW,233,0.0,0.0,53,0.00,,,0.00,Wunderground v.1.15,2013-02-12 23:56:00,
2013-02-12 18:57:00,50.3,33.8,29.94,SW,233,0.0,0.0,53,0.00,,,0.00,Wunderground v.1.15,2013-02-12 23:57:00,
2013-02-12 18:59:00,50.3,34.3,29.94,SW,233,0.0,0.0,54,0.00,,,0.00,Wunderground v.1.15,2013-02-12 23:59:00,
2013-02-12 19:01:00,50.3,34.3,29.94,SW,233,0.0,0.0,54,0.00,,,0.00,Wunderground v.1.15,2013-02-13 00:01:00,
2013-02-12 19:02:00,50.3,34.7,29.94,SW,233,0.0,0.0,55,0.00,,,0.00,Wunderground v.1.15,2013-02-13 00:02:00,
2013-02-12 19:04:00,50.2,34.6,29.93,SW,233,0.0,0.0,55,0.00,,,0.00,Wunderground v.1.15,2013-02-13 00:04:00,
2013-02-12 19:05:00,50.2,35.1,29.93,SW,233,0.0,0.0,56,0.00,,,0.00,Wunderground v.1.15,2013-02-13 00:05:00,
2013-02-12 19:06:00,50.2,35.5,29.93,SE,128,0.0,0.0,57,0.00,,,0.00,Wunderground v.1.15,2013-02-13 00:06:00,
2013-02-12 19:07:00,50.1,35.4,29.93,SE,128,0.0,0.0,57,0.00,,,0.00,Wunderground v.1.15,2013-02-13 00:07:00,
2013-02-12 19:09:00,50.1,35.4,29.93,SE,129,0.0,0.0,57,0.00,,,0.00,Wunderground v.1.15,2013-02-13 00:09:00,
2013-02-12 19:10:00,50.0,34.9,29.93,SE,128,0.0,0.0,56,0.00,,,0.00,Wunderground v.1.15,2013-02-13 00:10:00,
2013-02-12 19:11:00,50.0,34.5,29.93,SE,128,0.0,0.0,55,0.00,,,0.00,Wunderground v.1.15,2013-02-13 00:11:00,
2013-02-12 19:12:00,50.0,34.9,29.93,SE,128,0.0,0.0,56,0.00,,,0.00,Wunderground v.1.15,2013-02-13 00:12:00,
2013-02-12 19:14:00,49.9,34.8,29.93,SE,128,0.0,0.0,56,0.00,,,0.00,Wunderground v.1.15,2013-02-13 00:14:00,
2013-02-12 19:15:00,49.9,34.8,29.92,SE,128,0.0,0.0,56,0.00,,,0.00,Wunderground v.1.15,2013-02-13 00:15:00,
2013-02-12 19:16:00,49.9,34.8,29.92,SE,128,0.0,0.0,56,0.00,,,0.00,Wunderground v.1.15,2013-02-13 00:16:00,
2013-02-12 19:17:00,49.9,35.3,29.92,SE,128,0.0,0.0,57,0.00,,,0.00,Wunderground v.1.15,2013-02-13 00:17:00,
2013-02-12 19:19:00,49.8,35.6,29.92,SE,128,0.0,0.0,58,0.00,,,0.00,Wunderground v.1.15,2013-02-13 00:19:00,
2013-02-12 19:20:00,49.8,36.0,29.91,SE,128,0.0,0.0,59,0.00,,,0.00,Wunderground v.1.15,2013-02-13 00:20:00,
2013-02-12 19:22:00,49.7,36.4,29.91,SE,128,0.0,0.0,60,0.00,,,0.00,Wunderground v.1.15,2013-02-13 00:22:00,
2013-02-12 19:24:00,49.5,37.0,29.91,SE,128,0.0,0.0,62,0.00,,,0.00,Wunderground v.1.15,2013-02-13 00:24:00,
2013-02-12 19:25:00,49.4,36.9,29.91,SE,128,0.0,0.0,62,0.00,,,0.00,Wunderground v.1.15,2013-02-13 00:25:00,
2013-02-12 19:27:00,49.4,36.5,29.91,SE,128,0.0,0.0,61,0.00,,,0.00,Wunderground v.1.15,2013-02-13 00:27:00,
2013-02-12 19:28:00,49.3,36.8,29.91,SE,128,0.0,0.0,62,0.00,,,0.00,Wunderground v.1.15,2013-02-13 00:28:00,
2013-02-12 19:30:00,49.1,36.6,29.91,SE,128,0.0,0.0,62,0.00,,,0.00,Wunderground v.1.15,2013-02-13 00:30:00,
2013-02-12 19:32:00,49.0,37.3,29.91,SE,128,0.0,0.0,64,0.00,,,0.00,Wunderground v.1.15,2013-02-13 00:32:00,
2013-02-12 19:33:00,48.9,37.3,29.91,SE,128,0.0,0.0,64,0.00,,,0.00,Wunderground v.1.15,2013-02-13 00:33:00,
2013-02-12 19:35:00,48.6,36.2,29.92,SE,129,0.0,0.0,62,0.00,,,0.00,Wunderground v.1.15,2013-02-13 00:35:00,
2013-02-12 19:36:00,48.7,35.8,29.92,SE,128,0.0,0.0,61,0.00,,,0.00,Wunderground v.1.15,2013-02-13 00:36:00,
2013-02-12 19:37:00,48.6,34.9,29.92,SW,218,0.0,0.0,59,0.00,,,0.00,Wunderground v.1.15,2013-02-13 00:37:00,
2013-02-12 19:38:00,48.6,34.9,29.93,SW,221,0.0,0.0,59,0.00,,,0.00,Wunderground v.1.15,2013-02-13 00:38:00,
2013-02-12 19:41:00,48.7,36.3,29.94,SW,221,0.0,0.0,62,0.00,,,0.00,Wunderground v.1.15,2013-02-13 00:41:00,
2013-02-12 19:42:00,48.7,36.7,29.94,SW,221,0.0,0.0,63,0.00,,,0.00,Wunderground v.1.15,2013-02-13 00:42:00,
2013-02-12 19:43:00,48.8,36.4,29.94,SW,221,0.0,0.0,62,0.00,,,0.00,Wunderground v.1.15,2013-02-13 00:43:00,
2013-02-12 19:46:00,48.7,36.7,29.95,SW,221,0.0,0.0,63,0.00,,,0.00,Wunderground v.1.15,2013-02-13 00:46:00,
2013-02-12 19:47:00,48.7,37.5,29.95,SW,221,0.0,0.0,65,0.00,,,0.00,Wunderground v.1.15,2013-02-13 00:47:00,
2013-02-12 19:48:00,48.7,37.1,29.95,SW,221,0.0,0.0,64,0.00,,,0.00,Wunderground v.1.15,2013-02-13 00:48:00,
2013-02-12 19:51:00,48.6,36.6,29.96,SW,229,2.0,2.0,63,0.00,,,0.00,Wunderground v.1.15,2013-02-13 00:51:00,
2013-02-12 19:52:00,48.7,36.7,29.96,SW,229,2.0,2.0,63,0.00,,,0.00,Wunderground v.1.15,2013-02-13 00:52:00,
2013-02-12 19:53:00,48.7,37.5,29.96,SW,226,2.0,2.0,65,0.00,,,0.00,Wunderground v.1.15,2013-02-13 00:53:00,
2013-02-12 19:56:00,48.7,36.7,29.97,SW,226,1.0,2.0,63,0.00,,,0.00,Wunderground v.1.15,2013-02-13 00:56:00,
2013-02-12 19:57:00,48.7,37.1,29.97,SW,226,1.0,2.0,64,0.00,,,0.00,Wunderground v.1.15,2013-02-13 00:57:00,
2013-02-12 19:58:00,48.7,36.7,29.97,SW,226,1.0,2.0,63,0.00,,,0.00,Wunderground v.1.15,2013-02-13 00:58:00,
2013-02-12 20:01:00,48.9,35.2,29.98,SW,225,2.0,3.0,59,0.00,,,0.00,Wunderground v.1.15,2013-02-13 01:01:00,
2013-02-12 20:02:00,48.9,35.2,29.98,SW,224,2.0,3.0,59,0.00,,,0.00,Wunderground v.1.15,2013-02-13 01:02:00,
2013-02-12 20:03:00,49.0,35.3,29.98,SW,235,2.0,3.0,59,0.00,,,0.00,Wunderground v.1.15,2013-02-13 01:03:00,
2013-02-12 20:06:00,49.3,35.1,29.98,WSW,237,3.0,3.0,58,0.00,,,0.00,Wunderground v.1.15,2013-02-13 01:06:00,
2013-02-12 20:07:00,49.3,35.1,29.98,WSW,241,2.0,3.0,58,0.00,,,0.00,Wunderground v.1.15,2013-02-13 01:07:00,
2013-02-12 20:08:00,49.4,34.3,29.98,SW,226,2.0,3.0,56,0.00,,,0.00,Wunderground v.1.15,2013-02-13 01:08:00,
2013-02-12 20:11:00,49.5,34.4,29.99,SW,222,1.0,2.0,56,0.00,,,0.00,Wunderground v.1.15,2013-02-13 01:11:00,
2013-02-12 20:12:00,49.5,34.4,29.99,SW,221,1.0,2.0,56,0.00,,,0.00,Wunderground v.1.15,2013-02-13 01:12:00,
2013-02-12 20:13:00,49.5,34.0,29.98,SW,221,0.0,2.0,55,0.00,,,0.00,Wunderground v.1.15,2013-02-13 01:13:00,
2013-02-12 20:16:00,49.7,35.5,29.98,SW,222,0.0,2.0,58,0.00,,,0.00,Wunderground v.1.15,2013-02-13 01:16:00,
2013-02-12 20:17:00,49.7,35.1,29.98,SW,222,0.0,2.0,57,0.00,,,0.00,Wunderground v.1.15,2013-02-13 01:17:00,
2013-02-12 20:18:00,49.7,35.1,29.98,SW,221,0.0,2.0,57,0.00,,,0.00,Wunderground v.1.15,2013-02-13 01:18:00,
2013-02-12 20:22:00,49.6,34.1,29.98,SW,222,0.0,0.0,55,0.00,,,0.00,Wunderground v.1.15,2013-02-13 01:22:00,
2013-02-12 20:24:00,49.6,33.6,29.98,SW,221,0.0,0.0,54,0.00,,,0.00,Wunderground v.1.15,2013-02-13 01:24:00,
2013-02-12 20:27:00,49.6,33.6,29.98,SW,222,0.0,0.0,54,0.00,,,0.00,Wunderground v.1.15,2013-02-13 01:27:00,
2013-02-12 20:29:00,49.6,35.4,29.98,SW,222,0.0,0.0,58,0.00,,,0.00,Wunderground v.1.15,2013-02-13 01:29:00,
2013-02-12 20:32:00,49.5,35.8,29.97,SW,221,0.0,0.0,59,0.00,,,0.00,Wunderground v.1.15,2013-02-13 01:32:00,
2013-02-12 20:34:00,49.5,36.2,29.98,SW,222,0.0,0.0,60,0.00,,,0.00,Wunderground v.1.15,2013-02-13 01:34:00,
2013-02-12 20:37:00,49.3,37.2,29.97,SW,222,0.0,0.0,63,0.00,,,0.00,Wunderground v.1.15,2013-02-13 01:37:00,
2013-02-12 20:38:00,49.2,37.5,29.98,SW,222,0.0,0.0,64,0.00,,,0.00,Wunderground v.1.15,2013-02-13 01:38:00,
2013-02-12 20:39:00,49.2,37.5,29.98,SW,222,0.0,0.0,64,0.00,,,0.00,Wunderground v.1.15,2013-02-13 01:39:00,
2013-02-12 20:42:00,48.8,37.6,29.98,SW,222,0.0,0.0,65,0.00,,,0.00,Wunderground v.1.15,2013-02-13 01:42:00,
2013-02-12 20:44:00,48.7,37.5,29.98,SW,222,0.0,0.0,65,0.00,,,0.00,Wunderground v.1.15,2013-02-13 01:44:00,
2013-02-12 20:47:00,48.5,37.7,29.98,SW,222,0.0,0.0,66,0.00,,,0.00,Wunderground v.1.15,2013-02-13 01:47:00,
2013-02-12 20:48:00,48.5,37.7,29.98,SW,222,0.0,0.0,66,0.00,,,0.00,Wunderground v.1.15,2013-02-13 01:48:00,
2013-02-12 20:49:00,48.4,37.9,29.99,SW,222,0.0,0.0,67,0.00,,,0.00,Wunderground v.1.15,2013-02-13 01:49:00,
2013-02-12 20:52:00,48.3,37.8,29.99,SW,221,0.0,0.0,67,0.00,,,0.00,Wunderground v.1.15,2013-02-13 01:52:00,
2013-02-12 20:53:00,48.3,37.8,29.99,SW,221,0.0,0.0,67,0.00,,,0.00,Wunderground v.1.15,2013-02-13 01:53:00,
2013-02-12 20:54:00,48.3,37.8,29.99,SW,222,0.0,0.0,67,0.00,,,0.00,Wunderground v.1.15,2013-02-13 01:54:00,
2013-02-12 20:58:00,48.1,37.3,29.99,SW,222,0.0,0.0,66,0.00,,,0.00,Wunderground v.1.15,2013-02-13 01:58:00,
2013-02-12 20:59:00,48.1,37.7,29.99,SW,221,0.0,0.0,67,0.00,,,0.00,Wunderground v.1.15,2013-02-13 01:59:00,
2013-02-12 21:03:00,48.3,37.8,29.99,SW,222,0.0,0.0,67,0.00,,,0.00,Wunderground v.1.15,2013-02-13 02:03:00,
2013-02-12 21:04:00,48.2,37.8,29.99,SW,223,0.0,0.0,67,0.00,,,0.00,Wunderground v.1.15,2013-02-13 02:04:00,
2013-02-12 21:05:00,48.2,37.8,29.99,SW,221,0.0,0.0,67,0.00,,,0.00,Wunderground v.1.15,2013-02-13 02:05:00,
2013-02-12 21:08:00,48.2,35.4,29.98,SW,222,0.0,0.0,61,0.00,,,0.00,Wunderground v.1.15,2013-02-13 02:08:00,
2013-02-12 21:09:00,48.2,35.4,29.98,SW,222,0.0,0.0,61,0.00,,,0.00,Wunderground v.1.15,2013-02-13 02:09:00,
2013-02-12 21:10:00,48.4,36.0,29.98,SW,222,0.0,0.0,62,0.00,,,0.00,Wunderground v.1.15,2013-02-13 02:10:00,
2013-02-12 21:13:00,48.5,35.7,29.98,SW,222,0.0,0.0,61,0.00,,,0.00,Wunderground v.1.15,2013-02-13 02:13:00,
2013-02-12 21:14:00,48.6,35.7,29.98,SW,222,0.0,0.0,61,0.00,,,0.00,Wunderground v.1.15,2013-02-13 02:14:00,
2013-02-12 21:15:00,48.6,34.9,29.97,SW,222,0.0,0.0,59,0.00,,,0.00,Wunderground v.1.15,2013-02-13 02:15:00,
2013-02-12 21:18:00,48.5,36.5,29.97,SW,222,0.0,0.0,63,0.00,,,0.00,Wunderground v.1.15,2013-02-13 02:18:00,
2013-02-12 21:19:00,48.5,36.9,29.97,SW,222,0.0,0.0,64,0.00,,,0.00,Wunderground v.1.15,2013-02-13 02:19:00,
2013-02-12 21:20:00,48.5,36.9,29.98,SW,221,0.0,0.0,64,0.00,,,0.00,Wunderground v.1.15,2013-02-13 02:20:00,
2013-02-12 21:24:00,48.3,37.1,29.98,SSW,208,0.0,0.0,65,0.00,,,0.00,Wunderground v.1.15,2013-02-13 02:24:00,
2013-02-12 21:25:00,48.2,37.0,29.98,SSW,203,0.0,0.0,65,0.00,,,0.00,Wunderground v.1.15,2013-02-13 02:25:00,
2013-02-12 21:29:00,48.1,36.1,29.98,SSW,207,0.0,3.0,63,0.00,,,0.00,Wunderground v.1.15,2013-02-13 02:29:00,
2013-02-12 21:30:00,48.1,36.5,29.98,SSW,208,0.0,0.0,64,0.00,,,0.00,Wunderground v.1.15,2013-02-13 02:30:00,
2013-02-12 21:34:00,48.1,38.8,29.99,NW,307,0.0,3.0,70,0.00,,,0.00,Wunderground v.1.15,2013-02-13 02:34:00,
2013-02-12 21:35:00,48.0,39.0,29.99,NW,307,1.0,3.0,71,0.00,,,0.00,Wunderground v.1.15,2013-02-13 02:35:00,
2013-02-12 21:39:00,47.9,39.3,30.00,West,278,1.0,3.0,72,0.00,,,0.00,Wunderground v.1.15,2013-02-13 02:39:00,
2013-02-12 21:40:00,47.8,39.9,30.00,West,278,0.0,0.0,74,0.00,,,0.00,Wunderground v.1.15,2013-02-13 02:40:00,
2013-02-12 21:44:00,47.6,37.9,30.00,West,278,0.0,0.0,69,0.00,,,0.00,Wunderground v.1.15,2013-02-13 02:44:00,
2013-02-12 21:45:00,47.6,37.6,30.00,West,278,0.0,0.0,68,0.00,,,0.00,Wunderground v.1.15,2013-02-13 02:45:00,
2013-02-12 21:49:00,47.7,37.3,30.00,West,278,0.0,0.0,67,0.00,,,0.00,Wunderground v.1.15,2013-02-13 02:49:00,
2013-02-12 21:50:00,47.7,36.1,30.00,West,278,0.0,0.0,64,0.00,,,0.00,Wunderground v.1.15,2013-02-13 02:50:00,
2013-02-12 21:54:00,48.1,34.9,30.00,SSW,203,0.0,0.0,60,0.00,,,0.00,Wunderground v.1.15,2013-02-13 02:54:00,
2013-02-12 21:55:00,48.2,35.0,30.00,South,188,0.0,0.0,60,0.00,,,0.00,Wunderground v.1.15,2013-02-13 02:55:00,
2013-02-12 21:59:00,48.7,35.8,30.00,SSW,205,0.0,0.0,61,0.00,,,0.00,Wunderground v.1.15,2013-02-13 02:59:00,
2013-02-12 22:00:00,48.7,35.4,30.00,SSW,205,0.0,0.0,60,0.00,,,0.00,Wunderground v.1.15,2013-02-13 03:00:00,
2013-02-12 22:01:00,48.7,35.4,29.99,SSW,205,0.0,0.0,60,0.00,,,0.00,Wunderground v.1.15,2013-02-13 03:01:00,
2013-02-12 22:05:00,48.9,34.8,29.99,SSW,205,0.0,0.0,58,0.00,,,0.00,Wunderground v.1.15,2013-02-13 03:05:00,
2013-02-12 22:06:00,48.8,34.2,29.99,SSW,205,0.0,0.0,57,0.00,,,0.00,Wunderground v.1.15,2013-02-13 03:06:00,
2013-02-12 22:10:00,49.0,34.0,29.98,SSW,205,0.0,0.0,56,0.00,,,0.00,Wunderground v.1.15,2013-02-13 03:10:00,
2013-02-12 22:11:00,49.0,35.3,29.98,SSW,206,0.0,0.0,59,0.00,,,0.00,Wunderground v.1.15,2013-02-13 03:11:00,
2013-02-12 22:15:00,49.1,35.4,29.98,SSW,205,0.0,0.0,59,0.00,,,0.00,Wunderground v.1.15,2013-02-13 03:15:00,
2013-02-12 22:16:00,49.1,35.4,29.98,SSW,205,0.0,0.0,59,0.00,,,0.00,Wunderground v.1.15,2013-02-13 03:16:00,
2013-02-12 22:20:00,48.8,37.6,29.98,SSW,205,0.0,0.0,65,0.00,,,0.00,Wunderground v.1.15,2013-02-13 03:20:00,
2013-02-12 22:21:00,48.8,37.6,29.98,SSW,205,0.0,0.0,65,0.00,,,0.00,Wunderground v.1.15,2013-02-13 03:21:00,
2013-02-12 22:26:00,48.5,36.9,29.98,SW,221,0.0,0.0,64,0.00,,,0.00,Wunderground v.1.15,2013-02-13 03:26:00,
2013-02-12 22:31:00,48.6,35.3,29.97,SW,221,0.0,0.0,60,0.00,,,0.00,Wunderground v.1.15,2013-02-13 03:31:00,
2013-02-12 22:36:00,48.7,35.8,29.96,South,187,0.0,0.0,61,0.00,,,0.00,Wunderground v.1.15,2013-02-13 03:36:00,
2013-02-12 22:41:00,48.6,38.5,29.95,SE,132,0.0,0.0,68,0.00,,,0.00,Wunderground v.1.15,2013-02-13 03:41:00,
2013-02-12 22:46:00,48.2,38.5,29.96,SE,132,0.0,0.0,69,0.00,,,0.00,Wunderground v.1.15,2013-02-13 03:46:00,
2013-02-12 22:51:00,47.9,39.3,29.95,SE,132,0.0,0.0,72,0.00,,,0.00,Wunderground v.1.15,2013-02-13 03:51:00,
2013-02-12 22:52:00,47.8,39.6,29.96,SE,132,0.0,0.0,73,0.00,,,0.00,Wunderground v.1.15,2013-02-13 03:52:00,
2013-02-12 22:56:00,47.5,38.9,29.96,SE,132,0.0,0.0,72,0.00,,,0.00,Wunderground v.1.15,2013-02-13 03:56:00,
2013-02-12 22:57:00,47.4,37.7,29.96,SE,132,0.0,0.0,69,0.00,,,0.00,Wunderground v.1.15,2013-02-13 03:57:00,
2013-02-12 23:01:00,47.3,39.1,29.96,SW,233,0.0,0.0,73,0.00,,,0.00,Wunderground v.1.15,2013-02-13 04:01:00,
2013-02-12 23:02:00,47.3,39.1,29.96,SW,233,0.0,0.0,73,0.00,,,0.00,Wunderground v.1.15,2013-02-13 04:02:00,
2013-02-12 23:06:00,47.2,38.3,29.96,SW,233,0.0,0.0,71,0.00,,,0.00,Wunderground v.1.15,2013-02-13 04:06:00,
2013-02-12 23:07:00,47.2,38.3,29.96,SW,233,0.0,0.0,71,0.00,,,0.00,Wunderground v.1.15,2013-02-13 04:07:00,
2013-02-12 23:08:00,47.2,38.3,29.96,SW,234,0.0,0.0,71,0.00,,,0.00,Wunderground v.1.15,2013-02-13 04:08:00,
2013-02-12 23:12:00,47.1,38.2,29.96,SW,233,0.0,0.0,71,0.00,,,0.00,Wunderground v.1.15,2013-02-13 04:12:00,
2013-02-12 23:13:00,47.1,38.2,29.97,SW,233,0.0,0.0,71,0.00,,,0.00,Wunderground v.1.15,2013-02-13 04:13:00,
2013-02-12 23:17:00,47.0,38.1,29.97,SW,233,0.0,0.0,71,0.00,,,0.00,Wunderground v.1.15,2013-02-13 04:17:00,
2013-02-12 23:18:00,47.0,37.7,29.97,SW,234,0.0,0.0,70,0.00,,,0.00,Wunderground v.1.15,2013-02-13 04:18:00,
2013-02-12 23:22:00,47.0,37.4,29.96,SW,233,0.0,0.0,69,0.00,,,0.00,Wunderground v.1.15,2013-02-13 04:22:00,
2013-02-12 23:23:00,47.1,36.7,29.96,SW,233,0.0,0.0,67,0.00,,,0.00,Wunderground v.1.15,2013-02-13 04:23:00,
2013-02-12 23:27:00,47.3,39.1,29.95,SW,233,0.0,0.0,73,0.00,,,0.00,Wunderground v.1.15,2013-02-13 04:27:00,
2013-02-12 23:28:00,47.3,38.7,29.95,SW,233,0.0,0.0,72,0.00,,,0.00,Wunderground v.1.15,2013-02-13 04:28:00,
2013-02-12 23:32:00,47.2,37.2,29.95,SW,233,0.0,0.0,68,0.00,,,0.00,Wunderground v.1.15,2013-02-13 04:32:00,
2013-02-12 23:33:00,47.3,36.9,29.95,SW,233,0.0,0.0,67,0.00,,,0.00,Wunderground v.1.15,2013-02-13 04:33:00,
2013-02-12 23:37:00,47.4,38.8,29.95,SW,233,0.0,0.0,72,0.00,,,0.00,Wunderground v.1.15,2013-02-13 04:37:00,
2013-02-12 23:38:00,47.3,38.7,29.96,SW,233,0.0,0.0,72,0.00,,,0.00,Wunderground v.1.15,2013-02-13 04:38:00,
2013-02-12 23:39:00,47.3,38.7,29.96,SW,233,0.0,0.0,72,0.00,,,0.00,Wunderground v.1.15,2013-02-13 04:39:00,
2013-02-12 23:42:00,47.1,38.2,29.95,West,271,0.0,1.0,71,0.00,,,0.00,Wunderground v.1.15,2013-02-13 04:42:00,
2013-02-12 23:43:00,47.0,38.4,29.94,West,271,0.0,1.0,72,0.00,,,0.00,Wunderground v.1.15,2013-02-13 04:43:00,
2013-02-12 23:44:00,47.0,38.4,29.94,West,271,0.0,1.0,72,0.00,,,0.00,Wunderground v.1.15,2013-02-13 04:44:00,
2013-02-12 23:47:00,46.8,38.9,29.95,NNE,25,1.0,1.0,74,0.00,,,0.00,Wunderground v.1.15,2013-02-13 04:47:00,
2013-02-12 23:48:00,46.7,38.5,29.94,NNE,25,0.0,1.0,73,0.00,,,0.00,Wunderground v.1.15,2013-02-13 04:48:00,
2013-02-12 23:49:00,46.7,38.5,29.94,NNE,26,1.0,1.0,73,0.00,,,0.00,Wunderground v.1.15,2013-02-13 04:49:00,
2013-02-12 23:52:00,46.5,38.7,29.92,NE,54,0.0,2.0,74,0.00,,,0.00,Wunderground v.1.15,2013-02-13 04:52:00,
2013-02-12 23:53:00,46.4,38.6,29.93,NE,54,0.0,2.0,74,0.00,,,0.00,Wunderground v.1.15,2013-02-13 04:53:00,
2013-02-12 23:54:00,46.4,38.6,29.93,NE,53,0.0,2.0,74,0.00,,,0.00,Wunderground v.1.15,2013-02-13 04:54:00,
2013-02-12 23:57:00,46.4,37.9,29.93,ESE,108,0.0,2.0,72,0.00,,,0.00,Wunderground v.1.15,2013-02-13 04:57:00,
2013-02-12 23:59:00,46.4,38.2,29.93,ESE,108,1.0,2.0,73,0.00,,,0.00,Wunderground v.1.15,2013-02-13 04:59:00,